Observation data for Clyde on 02/10/2019      Previous  Date  Next       Current Mesonet Observations  Soil Data  Daily Summary Page  Observations in Plain Language
KCL2 100600Z 15008KT 01/M00 A3022 RMK A01 T00091001  RH  093%=      5-min Rain = 0
KCL2 100601Z 16006KT 01/M00 A3022 RMK A01 T00091001  RH  093%=      5-min Rain = 0
KCL2 100602Z 16009KT 01/M00 A3022 RMK A01 T00091001  RH  093%=      5-min Rain = 0
KCL2 100603Z 16008KT 01/M00 A3022 RMK A01 T00091001  RH  093%=      5-min Rain = 0
KCL2 100604Z 17009KT 01/M00 A3022 RMK A01 T00091001  RH  093%=      5-min Rain = 0
KCL2 100605Z 16009KT 01/M00 A3022 RMK A01 T00101001  RH  093%=      5-min Rain = 0
KCL2 100606Z 16009KT 01/M00 A3022 RMK A01 T00101001  RH  093%=      5-min Rain = 0
KCL2 100607Z 16008KT 01/M00 A3022 RMK A01 T00091001  RH  093%=      5-min Rain = 0
KCL2 100608Z 16011KT 01/M00 A3022 RMK A01 T00091001  RH  093%=      5-min Rain = 0
KCL2 100609Z 16009KT 01/M00 A3022 RMK A01 T00091001  RH  093%=      5-min Rain = 0
KCL2 100610Z 15010KT 01/M00 A3022 RMK A01 T00091001  RH  093%=      5-min Rain = 0
KCL2 100611Z 16008KT 01/M00 A3023 RMK A01 T00101001  RH  093%=      5-min Rain = 0
KCL2 100612Z 16010KT 01/M00 A3023 RMK A01 T00101001  RH  093%=      5-min Rain = 0
KCL2 100613Z 17007KT 01/M00 A3023 RMK A01 T00101001  RH  093%=      5-min Rain = 0
KCL2 100614Z 18008KT 01/M00 A3023 RMK A01 T00091001  RH  093%=      5-min Rain = 0
KCL2 100615Z 17008KT 01/M00 A3024 RMK A01 T00091001  RH  093%=      5-min Rain = 0
KCL2 100616Z 17009KT 01/M00 A3024 RMK A01 T00091001  RH  093%=      5-min Rain = 0
KCL2 100617Z 18007KT 01/M00 A3024 RMK A01 T00101001  RH  093%=      5-min Rain = 0
KCL2 100618Z 20005KT 01/M00 A3024 RMK A01 T00091001  RH  093%=      5-min Rain = 0
KCL2 100619Z 19006KT 01/M00 A3024 RMK A01 T00091001  RH  093%=      5-min Rain = 0
KCL2 100620Z 19005KT 01/M00 A3024 RMK A01 T00101001  RH  093%=      5-min Rain = 0
KCL2 100621Z 18005KT 01/00 A3024 RMK A01 T001000-0  RH  093%=      5-min Rain = 0
KCL2 100622Z 18004KT 01/M00 A3024 RMK A01 T00101001  RH  093%=      5-min Rain = 0
KCL2 100623Z 17006KT 01/M00 A3024 RMK A01 T00091001  RH  093%=      5-min Rain = 0
KCL2 100624Z 18005KT 01/00 A3024 RMK A01 T001000-0  RH  093%=      5-min Rain = 0
KCL2 100625Z 18006KT 01/00 A3024 RMK A01 T001000-0  RH  093%=      5-min Rain = 0
KCL2 100626Z 18007KT 01/00 A3024 RMK A01 T001000-0  RH  093%=      5-min Rain = 0
KCL2 100627Z 18008KT 01/00 A3024 RMK A01 T001000-0  RH  093%=      5-min Rain = 0
KCL2 100628Z 17007KT 01/00 A3024 RMK A01 T001000-0  RH  093%=      5-min Rain = 0
KCL2 100629Z 19005KT 01/00 A3024 RMK A01 T00100000  RH  093%=      5-min Rain = 0
KCL2 100630Z 19006KT 01/00 A3024 RMK A01 T001000-0  RH  093%=      5-min Rain = 0
KCL2 100631Z 18006KT 01/00 A3024 RMK A01 T001000-0  RH  093%=      5-min Rain = 0
KCL2 100632Z 18005KT 01/00 A3024 RMK A01 T00100000  RH  093%=      5-min Rain = 0
KCL2 100633Z 18005KT 01/00 A3025 RMK A01 T00100000  RH  093%=      5-min Rain = 0
KCL2 100634Z 19005KT 01/00 A3025 RMK A01 T00100001  RH  093%=      5-min Rain = 0
KCL2 100635Z 19006KT 01/00 A3025 RMK A01 T00100000  RH  093%=      5-min Rain = 0
KCL2 100636Z 19006KT 01/00 A3025 RMK A01 T00100001  RH  093%=      5-min Rain = 0
KCL2 100637Z 19007KT 01/00 A3025 RMK A01 T00100001  RH  093%=      5-min Rain = 0
KCL2 100638Z 18006KT 01/00 A3025 RMK A01 T00100001  RH  094%=      5-min Rain = 0
KCL2 100639Z 19005KT 01/00 A3025 RMK A01 T00100001  RH  094%=      5-min Rain = 0
KCL2 100640Z 19004KT 01/00 A3025 RMK A01 T00100001  RH  094%=      5-min Rain = 0
KCL2 100641Z 20006KT 01/00 A3025 RMK A01 T00100001  RH  094%=      5-min Rain = 0
KCL2 100642Z 19004KT 01/00 A3025 RMK A01 T00100001  RH  094%=      5-min Rain = 0
KCL2 100643Z 19005KT 01/00 A3025 RMK A01 T00100002  RH  094%=      5-min Rain = 0
KCL2 100644Z 20005KT 01/00 A3025 RMK A01 T00100002  RH  094%=      5-min Rain = 0
KCL2 100645Z 20007KT 01/00 A3025 RMK A01 T00100003  RH  094%=      5-min Rain = 0
KCL2 100646Z 20005KT 01/00 A3025 RMK A01 T00100003  RH  095%=      5-min Rain = 0
KCL2 100647Z 20004KT 01/00 A3025 RMK A01 T00100003  RH  095%=      5-min Rain = 0
KCL2 100648Z 21006KT 01/00 A3025 RMK A01 T00110003  RH  095%=      5-min Rain = 0
KCL2 100649Z 20005KT 01/00 A3024 RMK A01 T00100003  RH  095%=      5-min Rain = 0
KCL2 100650Z 19003KT 01/00 A3024 RMK A01 T00100004  RH  095%=      5-min Rain = 0
KCL2 100651Z 19005KT 01/00 A3024 RMK A01 T00100004  RH  095%=      5-min Rain = 0
KCL2 100652Z 18006KT 01/00 A3024 RMK A01 T00100004  RH  096%=      5-min Rain = 0
KCL2 100653Z 20005KT 01/00 A3024 RMK A01 T00100004  RH  096%=      5-min Rain = 0
KCL2 100654Z 20004KT 01/00 A3024 RMK A01 T00100004  RH  096%=      5-min Rain = 0
KCL2 100655Z 22004KT 01/01 A3025 RMK A01 T00100005  RH  096%=      5-min Rain = 0
KCL2 100656Z 22005KT 01/01 A3025 RMK A01 T00100005  RH  096%=      5-min Rain = 0
KCL2 100657Z 21005KT 01/00 A3025 RMK A01 T00100004  RH  096%=      5-min Rain = 0
KCL2 100658Z 20004KT 01/01 A3024 RMK A01 T00100005  RH  096%=      5-min Rain = 0
KCL2 100659Z 20004KT 01/01 A3024 RMK A01 T00100005  RH  096%=      5-min Rain = 0
KCL2 100700Z 20004KT 01/01 A3024 RMK A01 T00100005  RH  096%=      5-min Rain = 0
KCL2 100701Z 19004KT 01/01 A3024 RMK A01 T00100005  RH  096%=      5-min Rain = 0
KCL2 100702Z 19004KT 01/01 A3025 RMK A01 T00100005  RH  097%=      5-min Rain = 0
KCL2 100703Z 20004KT 01/01 A3025 RMK A01 T00100005  RH  097%=      5-min Rain = 0
KCL2 100704Z 19003KT 01/01 A3025 RMK A01 T00100005  RH  097%=      5-min Rain = 0
KCL2 100705Z 18003KT 01/01 A3024 RMK A01 T00100005  RH  097%=      5-min Rain = 0
KCL2 100706Z 17004KT 01/01 A3024 RMK A01 T00100006  RH  097%=      5-min Rain = 0
KCL2 100707Z 18004KT 01/01 A3024 RMK A01 T00100006  RH  097%=      5-min Rain = 0
KCL2 100708Z 18004KT 01/01 A3024 RMK A01 T00100006  RH  097%=      5-min Rain = 0
KCL2 100709Z 18004KT 01/01 A3024 RMK A01 T00100006  RH  097%=      5-min Rain = 0
KCL2 100710Z 18003KT 01/01 A3024 RMK A01 T00100006  RH  097%=      5-min Rain = 0
KCL2 100711Z 17004KT 01/01 A3024 RMK A01 T00100006  RH  097%=      5-min Rain = 0
KCL2 100712Z 17004KT 01/01 A3024 RMK A01 T00100006  RH  097%=      5-min Rain = 0
KCL2 100713Z 16004KT 01/01 A3024 RMK A01 T00100006  RH  098%=      5-min Rain = 0
KCL2 100714Z 16004KT 01/01 A3023 RMK A01 T00100007  RH  098%=      5-min Rain = 0
KCL2 100715Z 16006KT 01/01 A3023 RMK A01 T00100007  RH  098%=      5-min Rain = 0
KCL2 100716Z 16005KT 01/01 A3023 RMK A01 T00100007  RH  098%=      5-min Rain = 0
KCL2 100717Z 16005KT 01/01 A3023 RMK A01 T00100007  RH  098%=      5-min Rain = 0
KCL2 100718Z 16007KT 01/01 A3023 RMK A01 T00100007  RH  098%=      5-min Rain = 0
KCL2 100719Z 16006KT 01/01 A3023 RMK A01 T00100007  RH  098%=      5-min Rain = 0
KCL2 100720Z 16007KT 01/01 A3023 RMK A01 T00090007  RH  098%=      5-min Rain = 0
KCL2 100721Z 15006KT 01/01 A3023 RMK A01 T00090007  RH  098%=      5-min Rain = 0
KCL2 100722Z 15007KT 01/01 A3023 RMK A01 T00090007  RH  098%=      5-min Rain = 0
KCL2 100723Z 16009KT 01/01 A3022 RMK A01 T00090007  RH  098%=      5-min Rain = 0
KCL2 100724Z 15009KT 01/01 A3022 RMK A01 T00090007  RH  098%=      5-min Rain = 0
KCL2 100725Z 15008KT 01/01 A3022 RMK A01 T00090007  RH  098%=      5-min Rain = 0
KCL2 100726Z 16009KT 01/01 A3022 RMK A01 T00090006  RH  098%=      5-min Rain = 0
KCL2 100727Z 16007KT 01/01 A3022 RMK A01 T00090006  RH  098%=      5-min Rain = 0
KCL2 100728Z 16007KT 01/01 A3022 RMK A01 T00090007  RH  098%=      5-min Rain = 0
KCL2 100729Z 16005KT 01/01 A3022 RMK A01 T00090007  RH  098%=      5-min Rain = 0
KCL2 100730Z 16005KT 01/01 A3023 RMK A01 T00090007  RH  098%=      5-min Rain = 0
KCL2 100731Z 16006KT 01/01 A3023 RMK A01 T00090007  RH  099%=      5-min Rain = 0
KCL2 100732Z 16006KT 01/01 A3023 RMK A01 T00090007  RH  099%=      5-min Rain = 0
KCL2 100733Z 15005KT 01/01 A3023 RMK A01 T00090007  RH  099%=      5-min Rain = 0
KCL2 100734Z 15004KT 01/01 A3023 RMK A01 T00090007  RH  099%=      5-min Rain = 0
KCL2 100735Z 14006KT 01/01 A3023 RMK A01 T00090007  RH  099%=      5-min Rain = 0
KCL2 100736Z 15008KT 01/01 A3022 RMK A01 T00090007  RH  099%=      5-min Rain = 0
KCL2 100737Z 15008KT 01/01 A3023 RMK A01 T00090007  RH  099%=      5-min Rain = 0
KCL2 100738Z 15007KT 01/01 A3023 RMK A01 T00090007  RH  099%=      5-min Rain = 0
KCL2 100739Z 15006KT 01/01 A3022 RMK A01 T00080007  RH  099%=      5-min Rain = 0
KCL2 100740Z 14006KT 01/01 A3022 RMK A01 T00080007  RH  099%=      5-min Rain = 0
KCL2 100741Z 15006KT 01/01 A3022 RMK A01 T00090007  RH  099%=      5-min Rain = 0
KCL2 100742Z 16005KT 01/01 A3022 RMK A01 T00080007  RH  099%=      5-min Rain = 0
KCL2 100743Z 16005KT 01/01 A3022 RMK A01 T00080006  RH  099%=      5-min Rain = 0
KCL2 100744Z 16005KT 01/01 A3022 RMK A01 T00080006  RH  099%=      5-min Rain = 0
KCL2 100745Z 15004KT 01/01 A3022 RMK A01 T00080007  RH  099%=      5-min Rain = 0
KCL2 100746Z 15006KT 01/01 A3022 RMK A01 T00080006  RH  099%=      5-min Rain = 0
KCL2 100747Z 15006KT 01/01 A3022 RMK A01 T00080006  RH  099%=      5-min Rain = 0
KCL2 100748Z 15005KT 01/01 A3022 RMK A01 T00080006  RH  099%=      5-min Rain = 0
KCL2 100749Z 16006KT 01/01 A3022 RMK A01 T00070006  RH  099%=      5-min Rain = 0
KCL2 100750Z 15005KT 01/01 A3022 RMK A01 T00080006  RH  099%=      5-min Rain = 0
KCL2 100751Z 15006KT 01/01 A3022 RMK A01 T00080006  RH  099%=      5-min Rain = 0
KCL2 100752Z 16005KT 01/01 A3022 RMK A01 T00080006  RH  099%=      5-min Rain = 0
KCL2 100753Z 15005KT 01/01 A3022 RMK A01 T00080006  RH  099%=      5-min Rain = 0
KCL2 100754Z 14004KT 01/01 A3022 RMK A01 T00080006  RH  099%=      5-min Rain = 0
KCL2 100755Z 14006KT 01/01 A3021 RMK A01 T00080006  RH  099%=      5-min Rain = 0
KCL2 100756Z 15007KT 01/01 A3021 RMK A01 T00080006  RH  099%=      5-min Rain = 0
KCL2 100757Z 14006KT 01/01 A3021 RMK A01 T00080006  RH  099%=      5-min Rain = 0
KCL2 100758Z 14007KT 01/01 A3021 RMK A01 T00080006  RH  099%=      5-min Rain = 0
KCL2 100759Z 14007KT 01/01 A3021 RMK A01 T00080006  RH  099%=      5-min Rain = 0
KCL2 100800Z 15007KT 01/01 A3021 RMK A01 T00080006  RH  099%=      5-min Rain = 0
KCL2 100801Z 16005KT 01/01 A3021 RMK A01 T00080006  RH  099%=      5-min Rain = 0
KCL2 100802Z 15006KT 01/01 A3021 RMK A01 T00080006  RH  099%=      5-min Rain = 0
KCL2 100803Z 15006KT 01/01 A3021 RMK A01 T00080006  RH  099%=      5-min Rain = 0
KCL2 100804Z 15006KT 01/01 A3021 RMK A01 T00080006  RH  099%=      5-min Rain = 0
KCL2 100805Z 16009KT 01/01 A3021 RMK A01 T00080007  RH  099%=      5-min Rain = 0
KCL2 100806Z 15008KT 01/01 A3021 RMK A01 T00080006  RH  099%=      5-min Rain = 0
KCL2 100807Z 15006KT 01/01 A3021 RMK A01 T00080007  RH  099%=      5-min Rain = 0
KCL2 100808Z 15007KT 01/01 A3021 RMK A01 T00080007  RH  099%=      5-min Rain = 0
KCL2 100809Z 15007KT 01/01 A3021 RMK A01 T00080006  RH  099%=      5-min Rain = 0
KCL2 100810Z 14006KT 01/01 A3021 RMK A01 T00080006  RH  099%=      5-min Rain = 0
KCL2 100811Z 15006KT 01/01 A3021 RMK A01 T00080007  RH  099%=      5-min Rain = 0
KCL2 100812Z 16008KT 01/01 A3021 RMK A01 T00080006  RH  099%=      5-min Rain = 0
KCL2 100813Z 14006KT 01/01 A3021 RMK A01 T00080007  RH  099%=      5-min Rain = 0
KCL2 100814Z 15005KT 01/01 A3021 RMK A01 T00080007  RH  099%=      5-min Rain = 0
KCL2 100815Z 15005KT 01/01 A3021 RMK A01 T00080007  RH  099%=      5-min Rain = 0
KCL2 100816Z 15004KT 01/01 A3021 RMK A01 T00090007  RH  099%=      5-min Rain = 0
KCL2 100817Z 15005KT 01/01 A3021 RMK A01 T00090008  RH  099%=      5-min Rain = 0
KCL2 100818Z 14005KT 01/01 A3021 RMK A01 T00090007  RH  099%=      5-min Rain = 0
KCL2 100819Z 15004KT 01/01 A3021 RMK A01 T00090008  RH  099%=      5-min Rain = 0
KCL2 100820Z 16005KT 01/01 A3021 RMK A01 T00090007  RH  099%=      5-min Rain = 0
KCL2 100821Z 15005KT 01/01 A3021 RMK A01 T00090008  RH  099%=      5-min Rain = 0
KCL2 100822Z 15006KT 01/01 A3021 RMK A01 T00090007  RH  099%=      5-min Rain = 0
KCL2 100823Z 16007KT 01/01 A3021 RMK A01 T00090007  RH  099%=      5-min Rain = 0
KCL2 100824Z 15006KT 01/01 A3021 RMK A01 T00090007  RH  099%=      5-min Rain = 0
KCL2 100825Z 15006KT 01/01 A3021 RMK A01 T00090007  RH  099%=      5-min Rain = 0
KCL2 100826Z 15005KT 01/01 A3021 RMK A01 T00090008  RH  099%=      5-min Rain = 0
KCL2 100827Z 15004KT 01/01 A3021 RMK A01 T00090007  RH  099%=      5-min Rain = 0
KCL2 100828Z 15004KT 01/01 A3021 RMK A01 T00090007  RH  099%=      5-min Rain = 0
KCL2 100829Z 16004KT 01/01 A3021 RMK A01 T00090007  RH  099%=      5-min Rain = 0
KCL2 100830Z 16004KT 01/01 A302 RMK A01 T00090008  RH  099%=      5-min Rain = 0
KCL2 100831Z 14003KT 01/01 A302 RMK A01 T00100008  RH  099%=      5-min Rain = 0
KCL2 100832Z 14005KT 01/01 A302 RMK A01 T00090008  RH  099%=      5-min Rain = 0
KCL2 100833Z 14005KT 01/01 A302 RMK A01 T00090008  RH  099%=      5-min Rain = 0
KCL2 100834Z 16004KT 01/01 A302 RMK A01 T00100008  RH  099%=      5-min Rain = 0
KCL2 100835Z 15004KT 01/01 A302 RMK A01 T00090008  RH  099%=      5-min Rain = 0
KCL2 100836Z 15005KT 01/01 A302 RMK A01 T00090008  RH  099%=      5-min Rain = 0
KCL2 100837Z 15005KT 01/01 A302 RMK A01 T00100008  RH  099%=      5-min Rain = 0
KCL2 100838Z 16005KT 01/01 A302 RMK A01 T00100008  RH  099%=      5-min Rain = 0
KCL2 100839Z 16006KT 01/01 A302 RMK A01 T00090008  RH  099%=      5-min Rain = 0
KCL2 100840Z 16004KT 01/01 A302 RMK A01 T00090008  RH  099%=      5-min Rain = 0
KCL2 100841Z 15004KT 01/01 A302 RMK A01 T00090008  RH  099%=      5-min Rain = 0
KCL2 100842Z 15004KT 01/01 A302 RMK A01 T00090008  RH  099%=      5-min Rain = 0
KCL2 100843Z 15005KT 01/01 A302 RMK A01 T00090008  RH  099%=      5-min Rain = 0
KCL2 100844Z 16005KT 01/01 A302 RMK A01 T00090008  RH  099%=      5-min Rain = 0
KCL2 100845Z 16008KT 01/01 A302 RMK A01 T00090008  RH  099%=      5-min Rain = 0
KCL2 100846Z 16008KT 01/01 A302 RMK A01 T00090008  RH  099%=      5-min Rain = 0
KCL2 100847Z 15007KT 01/01 A302 RMK A01 T00090008  RH  099%=      5-min Rain = 0
KCL2 100848Z 15008KT 01/01 A302 RMK A01 T00090008  RH  099%=      5-min Rain = 0
KCL2 100849Z 16008KT 01/01 A3019 RMK A01 T00100008  RH  099%=      5-min Rain = 0
KCL2 100850Z 15008KT 01/01 A302 RMK A01 T00090008  RH  099%=      5-min Rain = 0
KCL2 100851Z 15007KT 01/01 A302 RMK A01 T00100008  RH  099%=      5-min Rain = 0
KCL2 100852Z 14006KT 01/01 A302 RMK A01 T00100008  RH  099%=      5-min Rain = 0
KCL2 100853Z 15006KT 01/01 A3019 RMK A01 T00090008  RH  099%=      5-min Rain = 0
KCL2 100854Z 15007KT 01/01 A3019 RMK A01 T00090008  RH  099%=      5-min Rain = 0
KCL2 100855Z 15006KT 01/01 A3019 RMK A01 T00090008  RH  099%=      5-min Rain = 0
KCL2 100856Z 15005KT 01/01 A302 RMK A01 T00090008  RH  099%=      5-min Rain = 0
KCL2 100857Z 15007KT 01/01 A302 RMK A01 T00100009  RH  099%=      5-min Rain = 0
KCL2 100858Z 15006KT 01/01 A302 RMK A01 T00100008  RH  099%=      5-min Rain = 0
KCL2 100859Z 16009KT 01/01 A302 RMK A01 T00090008  RH  099%=      5-min Rain = 0
KCL2 100900Z 15009KT 01/01 A302 RMK A01 T00100009  RH  099%=      5-min Rain = 0
KCL2 100901Z 15008KT 01/01 A302 RMK A01 T00090008  RH  099%=      5-min Rain = 0
KCL2 100902Z 15009KT 01/01 A302 RMK A01 T00090008  RH  099%=      5-min Rain = 0
KCL2 100903Z 15008KT 01/01 A302 RMK A01 T00100008  RH  099%=      5-min Rain = 0
KCL2 100904Z 15008KT 01/01 A3019 RMK A01 T00090008  RH  099%=      5-min Rain = 0
KCL2 100905Z 16008KT 01/01 A3019 RMK A01 T00100008  RH  099%=      5-min Rain = 0
KCL2 100906Z 16007KT 01/01 A3019 RMK A01 T00090008  RH  099%=      5-min Rain = 0
KCL2 100907Z 15006KT 01/01 A3019 RMK A01 T00090008  RH  099%=      5-min Rain = 0
KCL2 100908Z 15006KT 01/01 A3019 RMK A01 T00090008  RH  099%=      5-min Rain = 0
KCL2 100909Z 15007KT 01/01 A3019 RMK A01 T00090008  RH  099%=      5-min Rain = 0
KCL2 100910Z 15006KT 01/01 A3019 RMK A01 T00090008  RH  099%=      5-min Rain = 0
KCL2 100911Z 15005KT 01/01 A3019 RMK A01 T00090008  RH  099%=      5-min Rain = 0
KCL2 100912Z 15006KT 01/01 A3019 RMK A01 T00100008  RH  099%=      5-min Rain = 0
KCL2 100913Z 15008KT 01/01 A3019 RMK A01 T00100008  RH  099%=      5-min Rain = 0
KCL2 100914Z 15007KT 01/01 A3019 RMK A01 T00090008  RH  099%=      5-min Rain = 0
KCL2 100915Z 15008KT 01/01 A3019 RMK A01 T00100008  RH  099%=      5-min Rain = 0
KCL2 100916Z 15005KT 01/01 A3019 RMK A01 T00090008  RH  099%=      5-min Rain = 0
KCL2 100917Z 16006KT 01/01 A3019 RMK A01 T00100008  RH  099%=      5-min Rain = 0
KCL2 100918Z 16006KT 01/01 A3018 RMK A01 T00090008  RH  099%=      5-min Rain = 0
KCL2 100919Z 16008KT 01/01 A3018 RMK A01 T00100009  RH  099%=      5-min Rain = 0
KCL2 100920Z 15010KT 01/01 A3018 RMK A01 T00090008  RH  099%=      5-min Rain = 0
KCL2 100921Z 16008KT 01/01 A3018 RMK A01 T00100008  RH  099%=      5-min Rain = 0
KCL2 100922Z 16007KT 01/01 A3018 RMK A01 T00100008  RH  099%=      5-min Rain = 0
KCL2 100923Z 17007KT 01/01 A3018 RMK A01 T00090008  RH  099%=      5-min Rain = 0
KCL2 100924Z 16006KT 01/01 A3018 RMK A01 T00100008  RH  099%=      5-min Rain = 0
KCL2 100925Z 16007KT 01/01 A3018 RMK A01 T00090008  RH  099%=      5-min Rain = 0
KCL2 100926Z 16008KT 01/01 A3018 RMK A01 T00100008  RH  099%=      5-min Rain = 0
KCL2 100927Z 16008KT 01/01 A3018 RMK A01 T00090008  RH  099%=      5-min Rain = 0
KCL2 100928Z 15007KT 01/01 A3018 RMK A01 T00090008  RH  099%=      5-min Rain = 0
KCL2 100929Z 15007KT 01/01 A3018 RMK A01 T00090008  RH  099%=      5-min Rain = 0
KCL2 100930Z 16006KT 01/01 A3018 RMK A01 T00090008  RH  099%=      5-min Rain = 0
KCL2 100931Z 15007KT 01/01 A3018 RMK A01 T00090008  RH  099%=      5-min Rain = 0
KCL2 100932Z 16008KT 01/01 A3018 RMK A01 T00090008  RH  099%=      5-min Rain = 0
KCL2 100933Z 15006KT 01/01 A3018 RMK A01 T00090008  RH  099%=      5-min Rain = 0
KCL2 100934Z 15006KT 01/01 A3018 RMK A01 T00090008  RH  099%=      5-min Rain = 0
KCL2 100935Z 15006KT 01/01 A3017 RMK A01 T00100009  RH  099%=      5-min Rain = 0
KCL2 100936Z 15006KT 01/01 A3018 RMK A01 T00100009  RH  099%=      5-min Rain = 0
KCL2 100937Z 16008KT 01/01 A3018 RMK A01 T00100009  RH  099%=      5-min Rain = 0
KCL2 100938Z 16007KT 01/01 A3017 RMK A01 T00100009  RH  099%=      5-min Rain = 0
KCL2 100939Z 16009KT 01/01 A3018 RMK A01 T00100009  RH  099%=      5-min Rain = 0
KCL2 100940Z 16009KT 01/01 A3018 RMK A01 T00100009  RH  099%=      5-min Rain = 0
KCL2 100941Z 16009KT 01/01 A3017 RMK A01 T00100009  RH  099%=      5-min Rain = 0
KCL2 100942Z 17009KT 01/01 A3017 RMK A01 T00100009  RH  099%=      5-min Rain = 0
KCL2 100943Z 16008KT 01/01 A3017 RMK A01 T00100009  RH  099%=      5-min Rain = 0
KCL2 100944Z 16006KT 01/01 A3017 RMK A01 T00100009  RH  099%=      5-min Rain = 0
KCL2 100945Z 17008KT 01/01 A3017 RMK A01 T00100009  RH  099%=      5-min Rain = 0
KCL2 100946Z 16011KT 01/01 A3017 RMK A01 T00100009  RH  099%=      5-min Rain = 0
KCL2 100947Z 16008KT 01/01 A3017 RMK A01 T00100009  RH  099%=      5-min Rain = 0
KCL2 100948Z 16008KT 01/01 A3017 RMK A01 T00100009  RH  099%=      5-min Rain = 0
KCL2 100949Z 16010KT 01/01 A3017 RMK A01 T00100010  RH  099%=      5-min Rain = 0
KCL2 100950Z 15008KT 01/01 A3017 RMK A01 T00110010  RH  099%=      5-min Rain = 0
KCL2 100951Z 16008KT 01/01 A3017 RMK A01 T00100009  RH  099%=      5-min Rain = 0
KCL2 100952Z 15008KT 01/01 A3017 RMK A01 T00100010  RH  099%=      5-min Rain = 0
KCL2 100953Z 16006KT 01/01 A3017 RMK A01 T00100010  RH  099%=      5-min Rain = 0
KCL2 100954Z 16007KT 01/01 A3017 RMK A01 T00100009  RH  099%=      5-min Rain = 0
KCL2 100955Z 16007KT 01/01 A3017 RMK A01 T00100009  RH  099%=      5-min Rain = 0
KCL2 100956Z 16006KT 01/01 A3017 RMK A01 T00100009  RH  099%=      5-min Rain = 0
KCL2 100957Z 17006KT 01/01 A3018 RMK A01 T00100009  RH  099%=      5-min Rain = 0
KCL2 100958Z 17008KT 01/01 A3018 RMK A01 T00110010  RH  099%=      5-min Rain = 0
KCL2 100959Z 16008KT 01/01 A3018 RMK A01 T00100010  RH  099%=      5-min Rain = 0
KCL2 101000Z 16007KT 01/01 A3018 RMK A01 T00100009  RH  099%=      5-min Rain = 0
KCL2 101001Z 16006KT 01/01 A3018 RMK A01 T00100010  RH  099%=      5-min Rain = 0
KCL2 101002Z 17004KT 01/01 A3018 RMK A01 T00110010  RH  099%=      5-min Rain = 0
KCL2 101003Z 16006KT 01/01 A3018 RMK A01 T00110010  RH  099%=      5-min Rain = 0
KCL2 101004Z 17005KT 01/01 A3018 RMK A01 T00110010  RH  099%=      5-min Rain = 0
KCL2 101005Z 16005KT 01/01 A3017 RMK A01 T00110010  RH  099%=      5-min Rain = 0
KCL2 101006Z 16005KT 01/01 A3017 RMK A01 T00110010  RH  099%=      5-min Rain = 0
KCL2 101007Z 16006KT 01/01 A3017 RMK A01 T00110010  RH  099%=      5-min Rain = 0
KCL2 101008Z 15007KT 01/01 A3017 RMK A01 T00110010  RH  099%=      5-min Rain = 0
KCL2 101009Z 15009KT 01/01 A3017 RMK A01 T00110010  RH  099%=      5-min Rain = 0
KCL2 101010Z 16009KT 01/01 A3016 RMK A01 T00110010  RH  099%=      5-min Rain = 0
KCL2 101011Z 15006KT 01/01 A3016 RMK A01 T00110010  RH  099%=      5-min Rain = 0
KCL2 101012Z 15006KT 01/01 A3016 RMK A01 T00110010  RH  099%=      5-min Rain = 0
KCL2 101013Z 15008KT 01/01 A3016 RMK A01 T00110010  RH  100%=      5-min Rain = 0
KCL2 101014Z 15007KT 01/01 A3016 RMK A01 T00110010  RH  100%=      5-min Rain = 0
KCL2 101015Z 16007KT 01/01 A3016 RMK A01 T00110010  RH  100%=      5-min Rain = 0
KCL2 101016Z 16007KT 01/01 A3016 RMK A01 T00110010  RH  100%=      5-min Rain = 0
KCL2 101017Z 14007KT 01/01 A3016 RMK A01 T00110010  RH  100%=      5-min Rain = 0
KCL2 101018Z 15007KT 01/01 A3016 RMK A01 T00110010  RH  099%=      5-min Rain = 0
KCL2 101019Z 14006KT 01/01 A3016 RMK A01 T00110010  RH  100%=      5-min Rain = 0
KCL2 101020Z 15008KT 01/01 A3016 RMK A01 T00110011  RH  100%=      5-min Rain = 0
KCL2 101021Z 15008KT 01/01 A3016 RMK A01 T00110011  RH  100%=      5-min Rain = 0
KCL2 101022Z 15010KT 01/01 A3016 RMK A01 T00110011  RH  100%=      5-min Rain = 0
KCL2 101023Z 13007KT 01/01 A3016 RMK A01 T00110011  RH  100%=      5-min Rain = 0
KCL2 101024Z 14009KT 01/01 A3016 RMK A01 T00110011  RH  100%=      5-min Rain = 0
KCL2 101025Z 15007KT 01/01 A3016 RMK A01 T00110011  RH  100%=      5-min Rain = 0
KCL2 101026Z 15008KT 01/01 A3016 RMK A01 T00110011  RH  100%=      5-min Rain = 0
KCL2 101027Z 15006KT 01/01 A3016 RMK A01 T00110010  RH  100%=      5-min Rain = 0
KCL2 101028Z 16006KT 01/01 A3016 RMK A01 T00110011  RH  100%=      5-min Rain = 0
KCL2 101029Z 15006KT 01/01 A3017 RMK A01 T00120011  RH  100%=      5-min Rain = 0
KCL2 101030Z 16005KT 01/01 A3017 RMK A01 T00110011  RH  100%=      5-min Rain = 0
KCL2 101031Z 17006KT 01/01 A3017 RMK A01 T00120011  RH  100%=      5-min Rain = 0
KCL2 101032Z 15004KT 01/01 A3017 RMK A01 T00120011  RH  100%=      5-min Rain = 0
KCL2 101033Z 17004KT 01/01 A3017 RMK A01 T00120011  RH  100%=      5-min Rain = 0
KCL2 101034Z 17004KT 01/01 A3017 RMK A01 T00120011  RH  100%=      5-min Rain = 0
KCL2 101035Z 14005KT 01/01 A3017 RMK A01 T00120011  RH  100%=      5-min Rain = 0
KCL2 101036Z 14005KT 01/01 A3017 RMK A01 T00120011  RH  100%=      5-min Rain = 0
KCL2 101037Z 18005KT 01/01 A3017 RMK A01 T00120011  RH  100%=      5-min Rain = 0
KCL2 101038Z 17006KT 01/01 A3017 RMK A01 T00120011  RH  100%=      5-min Rain = 0
KCL2 101039Z 16004KT 01/01 A3017 RMK A01 T00120011  RH  100%=      5-min Rain = 0
KCL2 101040Z 16004KT 01/01 A3017 RMK A01 T00120011  RH  100%=      5-min Rain = 0
KCL2 101041Z 15005KT 01/01 A3017 RMK A01 T00120011  RH  100%=      5-min Rain = 0
KCL2 101042Z 15006KT 01/01 A3017 RMK A01 T00120012  RH  100%=      5-min Rain = 0
KCL2 101043Z 15006KT 01/01 A3017 RMK A01 T00120011  RH  100%=      5-min Rain = 0
KCL2 101044Z 15006KT 01/01 A3017 RMK A01 T00120012  RH  100%=      5-min Rain = 0
KCL2 101045Z 16007KT 01/01 A3017 RMK A01 T00120012  RH  100%=      5-min Rain = 0
KCL2 101046Z 16007KT 01/01 A3017 RMK A01 T00120012  RH  100%=      5-min Rain = 0
KCL2 101047Z 16007KT 01/01 A3017 RMK A01 T00130012  RH  100%=      5-min Rain = 0
KCL2 101048Z 15007KT 01/01 A3017 RMK A01 T00130012  RH  100%=      5-min Rain = 0
KCL2 101049Z 16008KT 01/01 A3017 RMK A01 T00130012  RH  100%=      5-min Rain = 0
KCL2 101050Z 15008KT 01/01 A3017 RMK A01 T00130012  RH  100%=      5-min Rain = 0
KCL2 101051Z 15009KT 01/01 A3017 RMK A01 T00130012  RH  100%=      5-min Rain = 0
KCL2 101052Z 16007KT 01/01 A3017 RMK A01 T00130012  RH  100%=      5-min Rain = 0
KCL2 101053Z 16006KT 01/01 A3017 RMK A01 T00130012  RH  100%=      5-min Rain = 0
KCL2 101054Z 16009KT 01/01 A3017 RMK A01 T00130012  RH  100%=      5-min Rain = 0
KCL2 101055Z 16008KT 01/01 A3017 RMK A01 T00130012  RH  100%=      5-min Rain = 0
KCL2 101056Z 16007KT 01/01 A3017 RMK A01 T00130012  RH  100%=      5-min Rain = 0
KCL2 101057Z 16006KT 01/01 A3017 RMK A01 T00130012  RH  100%=      5-min Rain = 0
KCL2 101058Z 16005KT 01/01 A3017 RMK A01 T00130012  RH  100%=      5-min Rain = 0
KCL2 101059Z 16007KT 01/01 A3017 RMK A01 T00130012  RH  100%=      5-min Rain = 0
KCL2 101100Z 16007KT 01/01 A3017 RMK A01 T00130012  RH  100%=      5-min Rain = 0
KCL2 101101Z 15007KT 01/01 A3017 RMK A01 T00130012  RH  100%=      5-min Rain = 0
KCL2 101102Z 16007KT 01/01 A3017 RMK A01 T00130012  RH  100%=      5-min Rain = 0
KCL2 101103Z 16006KT 01/01 A3017 RMK A01 T00130012  RH  100%=      5-min Rain = 0
KCL2 101104Z 15008KT 01/01 A3017 RMK A01 T00130012  RH  100%=      5-min Rain = 0
KCL2 101105Z 16008KT 01/01 A3017 RMK A01 T00130012  RH  100%=      5-min Rain = 0
KCL2 101106Z 16008KT 01/01 A3017 RMK A01 T00130012  RH  100%=      5-min Rain = 0
KCL2 101107Z 15008KT 01/01 A3017 RMK A01 T00130012  RH  100%=      5-min Rain = 0
KCL2 101108Z 15006KT 01/01 A3017 RMK A01 T00130012  RH  100%=      5-min Rain = 0
KCL2 101109Z 16008KT 01/01 A3016 RMK A01 T00130013  RH  100%=      5-min Rain = 0
KCL2 101110Z 15007KT 01/01 A3016 RMK A01 T00130013  RH  100%=      5-min Rain = 0
KCL2 101111Z 15008KT 01/01 A3016 RMK A01 T00130013  RH  100%=      5-min Rain = 0
KCL2 101112Z 15008KT 01/01 A3016 RMK A01 T00130013  RH  100%=      5-min Rain = 0
KCL2 101113Z 15008KT 01/01 A3016 RMK A01 T00130013  RH  100%=      5-min Rain = 0
KCL2 101114Z 15008KT 01/01 A3016 RMK A01 T00130013  RH  100%=      5-min Rain = 0
KCL2 101115Z 14007KT 01/01 A3016 RMK A01 T00130013  RH  100%=      5-min Rain = 0
KCL2 101116Z 16009KT 01/01 A3016 RMK A01 T00130013  RH  100%=      5-min Rain = 0
KCL2 101117Z 16006KT 01/01 A3016 RMK A01 T00130013  RH  100%=      5-min Rain = 0
KCL2 101118Z 16007KT 01/01 A3016 RMK A01 T00130013  RH  100%=      5-min Rain = 0
KCL2 101119Z 16008KT 01/01 A3017 RMK A01 T00130013  RH  100%=      5-min Rain = 0
KCL2 101120Z 16008KT 01/01 A3017 RMK A01 T00130013  RH  100%=      5-min Rain = 0
KCL2 101121Z 15008KT 01/01 A3017 RMK A01 T00130013  RH  100%=      5-min Rain = 0
KCL2 101122Z 15009KT 01/01 A3017 RMK A01 T00130013  RH  100%=      5-min Rain = 0
KCL2 101123Z 16009KT 01/01 A3017 RMK A01 T00130013  RH  100%=      5-min Rain = 0
KCL2 101124Z 15009KT 01/01 A3016 RMK A01 T00130013  RH  100%=      5-min Rain = 0
KCL2 101125Z 15009KT 01/01 A3016 RMK A01 T00130013  RH  100%=      5-min Rain = 0
KCL2 101126Z 15007KT 01/01 A3016 RMK A01 T00130013  RH  100%=      5-min Rain = 0
KCL2 101127Z 16007KT 01/01 A3016 RMK A01 T00130013  RH  100%=      5-min Rain = 0
KCL2 101128Z 16008KT 01/01 A3016 RMK A01 T00130013  RH  100%=      5-min Rain = 0
KCL2 101129Z 15006KT 01/01 A3016 RMK A01 T00140013  RH  100%=      5-min Rain = 0
KCL2 101130Z 15005KT 01/01 A3016 RMK A01 T00140013  RH  100%=      5-min Rain = 0
KCL2 101131Z 16007KT 01/01 A3017 RMK A01 T00140013  RH  100%=      5-min Rain = 0
KCL2 101132Z 16007KT 01/01 A3017 RMK A01 T00140013  RH  100%=      5-min Rain = 0
KCL2 101133Z 16008KT 01/01 A3017 RMK A01 T00140014  RH  100%=      5-min Rain = 0
KCL2 101134Z 15008KT 01/01 A3016 RMK A01 T00140014  RH  100%=      5-min Rain = 0
KCL2 101135Z 15008KT 01/01 A3016 RMK A01 T00140014  RH  100%=      5-min Rain = 0
KCL2 101136Z 15007KT 01/01 A3016 RMK A01 T00140014  RH  100%=      5-min Rain = 0
KCL2 101137Z 15006KT 01/01 A3016 RMK A01 T00140014  RH  100%=      5-min Rain = 0
KCL2 101138Z 14007KT 01/01 A3016 RMK A01 T00140014  RH  100%=      5-min Rain = 0
KCL2 101139Z 15007KT 01/01 A3016 RMK A01 T00140014  RH  100%=      5-min Rain = 0
KCL2 101140Z 15007KT 01/01 A3016 RMK A01 T00140014  RH  100%=      5-min Rain = 0
KCL2 101141Z 16006KT 01/01 A3016 RMK A01 T00140014  RH  100%=      5-min Rain = 0
KCL2 101142Z 16005KT 01/01 A3016 RMK A01 T00140014  RH  100%=      5-min Rain = 0
KCL2 101143Z 15005KT 01/01 A3017 RMK A01 T00140014  RH  100%=      5-min Rain = 0
KCL2 101144Z 15007KT 01/01 A3016 RMK A01 T00140014  RH  100%=      5-min Rain = 0
KCL2 101145Z 15006KT 01/01 A3016 RMK A01 T00140014  RH  100%=      5-min Rain = 0
KCL2 101146Z 16007KT 01/01 A3016 RMK A01 T00140014  RH  100%=      5-min Rain = 0
KCL2 101147Z 15006KT 01/01 A3015 RMK A01 T00140014  RH  100%=      5-min Rain = 0
KCL2 101148Z 15007KT 01/01 A3015 RMK A01 T00140014  RH  100%=      5-min Rain = 0
KCL2 101149Z 14009KT 01/01 A3014 RMK A01 T00140014  RH  100%=      5-min Rain = 0
KCL2 101150Z 14010KT 01/01 A3014 RMK A01 T00140014  RH  100%=      5-min Rain = 0
KCL2 101151Z 14007KT 01/01 A3014 RMK A01 T00140014  RH  100%=      5-min Rain = 0
KCL2 101152Z 15007KT 01/01 A3014 RMK A01 T00140014  RH  100%=      5-min Rain = 0
KCL2 101153Z 15009KT 01/01 A3014 RMK A01 T00140014  RH  100%=      5-min Rain = 0
KCL2 101154Z 15008KT 01/01 A3015 RMK A01 T00140014  RH  100%=      5-min Rain = 0
KCL2 101155Z 15007KT 01/01 A3015 RMK A01 T00140014  RH  100%=      5-min Rain = 0
KCL2 101156Z 15008KT 01/01 A3015 RMK A01 T00140014  RH  100%=      5-min Rain = 0
KCL2 101157Z 16007KT 01/01 A3015 RMK A01 T00140014  RH  100%=      5-min Rain = 0
KCL2 101158Z 15007KT 01/01 A3015 RMK A01 T00140014  RH  100%=      5-min Rain = 0
KCL2 101159Z 15007KT 02/01 A3015 RMK A01 T00150014  RH  100%=      5-min Rain = 0
KCL2 101200Z 16008KT 02/01 A3015 RMK A01 T00150014  RH  100%=      5-min Rain = 0
KCL2 101201Z 15010KT 02/01 A3015 RMK A01 T00150014  RH  100%=      5-min Rain = 0
KCL2 101202Z 15006KT 02/01 A3015 RMK A01 T00150014  RH  100%=      5-min Rain = 0
KCL2 101203Z 16007KT 02/02 A3015 RMK A01 T00150015  RH  100%=      5-min Rain = 0
KCL2 101204Z 15006KT 02/02 A3014 RMK A01 T00150015  RH  100%=      5-min Rain = 0
KCL2 101205Z 14007KT 02/02 A3014 RMK A01 T00150015  RH  100%=      5-min Rain = 0
KCL2 101206Z 14009KT 02/02 A3014 RMK A01 T00150015  RH  100%=      5-min Rain = 0
KCL2 101207Z 15008KT 02/02 A3014 RMK A01 T00150015  RH  100%=      5-min Rain = 0
KCL2 101208Z 15008KT 02/02 A3014 RMK A01 T00150015  RH  100%=      5-min Rain = 0
KCL2 101209Z 16006KT 02/02 A3014 RMK A01 T00150015  RH  100%=      5-min Rain = 0
KCL2 101210Z 16007KT 02/02 A3014 RMK A01 T00160015  RH  100%=      5-min Rain = 0
KCL2 101211Z 15006KT 02/02 A3014 RMK A01 T00160016  RH  100%=      5-min Rain = 0
KCL2 101212Z 15007KT 02/02 A3014 RMK A01 T00160015  RH  100%=      5-min Rain = 0
KCL2 101213Z 15009KT 02/02 A3014 RMK A01 T00160016  RH  100%=      5-min Rain = 0
KCL2 101214Z 15008KT 02/02 A3014 RMK A01 T00160016  RH  100%=      5-min Rain = 0
KCL2 101215Z 15009KT 02/02 A3014 RMK A01 T00160016  RH  100%=      5-min Rain = 0
KCL2 101216Z 15008KT 02/02 A3014 RMK A01 T00160016  RH  100%=      5-min Rain = 0
KCL2 101217Z 14007KT 02/02 A3014 RMK A01 T00160016  RH  100%=      5-min Rain = 0
KCL2 101218Z 15009KT 02/02 A3014 RMK A01 T00160016  RH  100%=      5-min Rain = 0
KCL2 101219Z 15009KT 02/02 A3014 RMK A01 T00160016  RH  100%=      5-min Rain = 0
KCL2 101220Z 15009KT 02/02 A3014 RMK A01 T00160016  RH  100%=      5-min Rain = 0
KCL2 101221Z 15008KT 02/02 A3014 RMK A01 T00160016  RH  100%=      5-min Rain = 0
KCL2 101222Z 15008KT 02/02 A3014 RMK A01 T00160015  RH  100%=      5-min Rain = 0
KCL2 101223Z 15008KT 02/02 A3014 RMK A01 T00160015  RH  100%=      5-min Rain = 0
KCL2 101224Z 15009KT 02/02 A3014 RMK A01 T00160016  RH  100%=      5-min Rain = 0
KCL2 101225Z 15008KT 02/02 A3014 RMK A01 T00160016  RH  100%=      5-min Rain = 0
KCL2 101226Z 15005KT 02/02 A3014 RMK A01 T00160016  RH  100%=      5-min Rain = 0
KCL2 101227Z 15006KT 02/02 A3015 RMK A01 T00160016  RH  100%=      5-min Rain = 0
KCL2 101228Z 16004KT 02/02 A3015 RMK A01 T00170016  RH  100%=      5-min Rain = 0
KCL2 101229Z 14004KT 02/02 A3015 RMK A01 T00170016  RH  100%=      5-min Rain = 0
KCL2 101230Z 16004KT 02/02 A3015 RMK A01 T00170017  RH  100%=      5-min Rain = 0
KCL2 101231Z 15005KT 02/02 A3015 RMK A01 T00170017  RH  100%=      5-min Rain = 0
KCL2 101232Z 16005KT 02/02 A3016 RMK A01 T00170017  RH  100%=      5-min Rain = 0
KCL2 101233Z 17006KT 02/02 A3016 RMK A01 T00170017  RH  100%=      5-min Rain = 0
KCL2 101234Z 16006KT 02/02 A3016 RMK A01 T00170017  RH  100%=      5-min Rain = 0
KCL2 101235Z 15008KT 02/02 A3016 RMK A01 T00170016  RH  100%=      5-min Rain = 0
KCL2 101236Z 15009KT 02/02 A3016 RMK A01 T00170017  RH  100%=      5-min Rain = 0
KCL2 101237Z 16006KT 02/02 A3016 RMK A01 T00160016  RH  100%=      5-min Rain = 0
KCL2 101238Z 16005KT 02/02 A3016 RMK A01 T00160016  RH  100%=      5-min Rain = 0
KCL2 101239Z 16006KT 02/02 A3016 RMK A01 T00160016  RH  100%=      5-min Rain = 0
KCL2 101240Z 16005KT 02/02 A3016 RMK A01 T00160016  RH  100%=      5-min Rain = 0
KCL2 101241Z 15004KT 02/02 A3016 RMK A01 T00160016  RH  100%=      5-min Rain = 0
KCL2 101242Z 15005KT 02/02 A3016 RMK A01 T00170016  RH  100%=      5-min Rain = 0
KCL2 101243Z 15005KT 02/02 A3016 RMK A01 T00160016  RH  100%=      5-min Rain = 0
KCL2 101244Z 15006KT 02/02 A3016 RMK A01 T00170016  RH  100%=      5-min Rain = 0
KCL2 101245Z 15007KT 02/02 A3015 RMK A01 T00160016  RH  100%=      5-min Rain = 0
KCL2 101246Z 15008KT 02/02 A3016 RMK A01 T00160016  RH  100%=      5-min Rain = 0
KCL2 101247Z 15007KT 02/02 A3016 RMK A01 T00160016  RH  100%=      5-min Rain = 0
KCL2 101248Z 15006KT 02/02 A3016 RMK A01 T00160016  RH  100%=      5-min Rain = 0
KCL2 101249Z 16004KT 02/02 A3016 RMK A01 T00160016  RH  100%=      5-min Rain = 0
KCL2 101250Z 15004KT 02/02 A3016 RMK A01 T00170016  RH  100%=      5-min Rain = 0
KCL2 101251Z 16006KT 02/02 A3016 RMK A01 T00170017  RH  100%=      5-min Rain = 0
KCL2 101252Z 16005KT 02/02 A3016 RMK A01 T00170017  RH  100%=      5-min Rain = 0
KCL2 101253Z 15006KT 02/02 A3016 RMK A01 T00170017  RH  100%=      5-min Rain = 0
KCL2 101254Z 14006KT 02/02 A3016 RMK A01 T00170017  RH  100%=      5-min Rain = 0
KCL2 101255Z 14007KT 02/02 A3015 RMK A01 T00170017  RH  100%=      5-min Rain = 0
KCL2 101256Z 15007KT 02/02 A3015 RMK A01 T00170017  RH  100%=      5-min Rain = 0
KCL2 101257Z 15007KT 02/02 A3015 RMK A01 T00170017  RH  100%=      5-min Rain = 0
KCL2 101258Z 15008KT 02/02 A3015 RMK A01 T00170017  RH  100%=      5-min Rain = 0
KCL2 101259Z 14008KT 02/02 A3014 RMK A01 T00160016  RH  100%=      5-min Rain = 0
KCL2 101300Z 15009KT 02/02 A3014 RMK A01 T00160016  RH  100%=      5-min Rain = 0
KCL2 101301Z 14009KT 02/02 A3014 RMK A01 T00160016  RH  100%=      5-min Rain = 0
KCL2 101302Z 14008KT 02/02 A3014 RMK A01 T00160016  RH  100%=      5-min Rain = 0
KCL2 101303Z 15008KT 02/02 A3014 RMK A01 T00160016  RH  100%=      5-min Rain = 0
KCL2 101304Z 14008KT 02/02 A3014 RMK A01 T00160016  RH  100%=      5-min Rain = 0
KCL2 101305Z 14007KT 02/02 A3014 RMK A01 T00160016  RH  100%=      5-min Rain = 0
KCL2 101306Z 15008KT 02/02 A3014 RMK A01 T00160016  RH  100%=      5-min Rain = 0
KCL2 101307Z 15009KT 02/02 A3014 RMK A01 T00160016  RH  100%=      5-min Rain = 0
KCL2 101308Z 14008KT 02/02 A3014 RMK A01 T00160016  RH  100%=      5-min Rain = 0
KCL2 101309Z 14007KT 02/02 A3014 RMK A01 T00160016  RH  100%=      5-min Rain = 0
KCL2 101310Z 15006KT 02/02 A3014 RMK A01 T00160016  RH  100%=      5-min Rain = 0
KCL2 101311Z 14005KT 02/02 A3014 RMK A01 T00160016  RH  100%=      5-min Rain = 0
KCL2 101312Z 15008KT 02/02 A3014 RMK A01 T00170017  RH  100%=      5-min Rain = 0
KCL2 101313Z 15007KT 02/02 A3014 RMK A01 T00170017  RH  100%=      5-min Rain = 0
KCL2 101314Z 15007KT 02/02 A3015 RMK A01 T00170017  RH  100%=      5-min Rain = 0
KCL2 101315Z 16007KT 02/02 A3015 RMK A01 T00170017  RH  100%=      5-min Rain = 0
KCL2 101316Z 15006KT 02/02 A3014 RMK A01 T00170017  RH  100%=      5-min Rain = 0
KCL2 101317Z 14006KT 02/02 A3014 RMK A01 T00170017  RH  100%=      5-min Rain = 0
KCL2 101318Z 13007KT 02/02 A3013 RMK A01 T00170017  RH  100%=      5-min Rain = 0
KCL2 101319Z 13009KT 02/02 A3013 RMK A01 T00170017  RH  100%=      5-min Rain = 0
KCL2 101320Z 13009KT 02/02 A3012 RMK A01 T00170017  RH  100%=      5-min Rain = 0
KCL2 101321Z 13009KT 02/02 A3012 RMK A01 T00170017  RH  100%=      5-min Rain = 0
KCL2 101322Z 14009KT 02/02 A3012 RMK A01 T00170017  RH  100%=      5-min Rain = 0
KCL2 101323Z 14012KT 02/02 A3013 RMK A01 T00170017  RH  100%=      5-min Rain = 0
KCL2 101324Z 15010KT 02/02 A3012 RMK A01 T00170017  RH  100%=      5-min Rain = 0
KCL2 101325Z 15011KT 02/02 A3013 RMK A01 T00170017  RH  100%=      5-min Rain = 0
KCL2 101326Z 15010KT 02/02 A3013 RMK A01 T00170017  RH  100%=      5-min Rain = 0
KCL2 101327Z 15010KT 02/02 A3014 RMK A01 T00170017  RH  100%=      5-min Rain = 0
KCL2 101328Z 15011KT 02/02 A3013 RMK A01 T00170017  RH  100%=      5-min Rain = 0
KCL2 101329Z 15010KT 02/02 A3013 RMK A01 T00170017  RH  100%=      5-min Rain = 0
KCL2 101330Z 15010KT 02/02 A3013 RMK A01 T00170017  RH  100%=      5-min Rain = 0
KCL2 101331Z 15009KT 02/02 A3013 RMK A01 T00170017  RH  100%=      5-min Rain = 0
KCL2 101332Z 15008KT 02/02 A3013 RMK A01 T00170017  RH  100%=      5-min Rain = 0
KCL2 101333Z 15010KT 02/02 A3013 RMK A01 T00170017  RH  100%=      5-min Rain = 0
KCL2 101334Z 15008KT 02/02 A3014 RMK A01 T00170017  RH  100%=      5-min Rain = 0
KCL2 101335Z 16008KT 02/02 A3014 RMK A01 T00170017  RH  100%=      5-min Rain = 0
KCL2 101336Z 17007KT 02/02 A3014 RMK A01 T00170017  RH  100%=      5-min Rain = 0
KCL2 101337Z 16009KT 02/02 A3015 RMK A01 T00170017  RH  100%=      5-min Rain = 0
KCL2 101338Z 16008KT 02/02 A3015 RMK A01 T00170017  RH  100%=      5-min Rain = 0
KCL2 101339Z 16007KT 02/02 A3015 RMK A01 T00170017  RH  100%=      5-min Rain = 0
KCL2 101340Z 16005KT 02/02 A3015 RMK A01 T00180018  RH  100%=      5-min Rain = 0
KCL2 101341Z 15005KT 02/02 A3014 RMK A01 T00180018  RH  100%=      5-min Rain = 0
KCL2 101342Z 14006KT 02/02 A3014 RMK A01 T00180017  RH  100%=      5-min Rain = 0
KCL2 101343Z 14008KT 02/02 A3014 RMK A01 T00180018  RH  100%=      5-min Rain = 0
KCL2 101344Z 13006KT 02/02 A3013 RMK A01 T00180018  RH  100%=      5-min Rain = 0
KCL2 101345Z 13006KT 02/02 A3013 RMK A01 T00180018  RH  100%=      5-min Rain = 0
KCL2 101346Z 13007KT 02/02 A3013 RMK A01 T00180018  RH  100%=      5-min Rain = 0
KCL2 101347Z 14006KT 02/02 A3014 RMK A01 T00180018  RH  100%=      5-min Rain = 0
KCL2 101348Z 15005KT 02/02 A3014 RMK A01 T00180018  RH  100%=      5-min Rain = 0
KCL2 101349Z 16005KT 02/02 A3014 RMK A01 T00180018  RH  100%=      5-min Rain = 0
KCL2 101350Z 16005KT 02/02 A3015 RMK A01 T00180018  RH  100%=      5-min Rain = 0
KCL2 101351Z 17005KT 02/02 A3015 RMK A01 T00180018  RH  100%=      5-min Rain = 0
KCL2 101352Z 16004KT 02/02 A3015 RMK A01 T00180018  RH  100%=      5-min Rain = 0
KCL2 101353Z 16004KT 02/02 A3015 RMK A01 T00180018  RH  100%=      5-min Rain = 0
KCL2 101354Z 16004KT 02/02 A3015 RMK A01 T00180018  RH  100%=      5-min Rain = 0
KCL2 101355Z 16006KT 02/02 A3014 RMK A01 T00190019  RH  100%=      5-min Rain = 0
KCL2 101356Z 16007KT 02/02 A3014 RMK A01 T00190019  RH  100%=      5-min Rain = 0
KCL2 101357Z 16007KT 02/02 A3014 RMK A01 T00190019  RH  100%=      5-min Rain = 0
KCL2 101358Z 15005KT 02/02 A3014 RMK A01 T00190019  RH  100%=      5-min Rain = 0
KCL2 101359Z 15007KT 02/02 A3014 RMK A01 T00190018  RH  100%=      5-min Rain = 0
KCL2 101400Z 15007KT 02/02 A3013 RMK A01 T00190019  RH  100%=      5-min Rain = 0
KCL2 101401Z 15007KT 02/02 A3013 RMK A01 T00200019  RH  100%=      5-min Rain = 0
KCL2 101402Z 15008KT 02/02 A3013 RMK A01 T00200020  RH  100%=      5-min Rain = 0
KCL2 101403Z 15009KT 02/02 A3013 RMK A01 T00200020  RH  100%=      5-min Rain = 0
KCL2 101404Z 15007KT 02/02 A3013 RMK A01 T00200020  RH  100%=      5-min Rain = 0
KCL2 101405Z 15010KT 02/02 A3013 RMK A01 T00200020  RH  100%=      5-min Rain = 0
KCL2 101406Z 15011KT 02/02 A3012 RMK A01 T00200020  RH  100%=      5-min Rain = 0
KCL2 101407Z 14009KT 02/02 A3012 RMK A01 T00200020  RH  100%=      5-min Rain = 0
KCL2 101408Z 15008KT 02/02 A3013 RMK A01 T00200020  RH  100%=      5-min Rain = 0
KCL2 101409Z 15009KT 02/02 A3013 RMK A01 T00210020  RH  100%=      5-min Rain = 0
KCL2 101410Z 16007KT 02/02 A3013 RMK A01 T00200020  RH  100%=      5-min Rain = 0
KCL2 101411Z 16007KT 02/02 A3014 RMK A01 T00200020  RH  100%=      5-min Rain = 0
KCL2 101412Z 16006KT 02/02 A3014 RMK A01 T00200020  RH  100%=      5-min Rain = 0
KCL2 101413Z 16007KT 02/02 A3014 RMK A01 T00210021  RH  100%=      5-min Rain = 0
KCL2 101414Z 15007KT 02/02 A3013 RMK A01 T00210021  RH  100%=      5-min Rain = 0
KCL2 101415Z 15008KT 02/02 A3013 RMK A01 T00210021  RH  100%=      5-min Rain = 0
KCL2 101416Z 15009KT 02/02 A3013 RMK A01 T00210021  RH  100%=      5-min Rain = 0
KCL2 101417Z 15008KT 02/02 A3013 RMK A01 T00210021  RH  100%=      5-min Rain = 0
KCL2 101418Z 16007KT 02/02 A3013 RMK A01 T00210021  RH  100%=      5-min Rain = 0
KCL2 101419Z 16009KT 02/02 A3013 RMK A01 T00210021  RH  100%=      5-min Rain = 0
KCL2 101420Z 15008KT 02/02 A3013 RMK A01 T00210021  RH  100%=      5-min Rain = 0
KCL2 101421Z 15009KT 02/02 A3014 RMK A01 T00210021  RH  100%=      5-min Rain = 0
KCL2 101422Z 16010KT 02/02 A3014 RMK A01 T00210021  RH  100%=      5-min Rain = 0
KCL2 101423Z 16010KT 02/02 A3014 RMK A01 T00210021  RH  100%=      5-min Rain = 0
KCL2 101424Z 16008KT 02/02 A3014 RMK A01 T00200020  RH  100%=      5-min Rain = 0
KCL2 101425Z 15008KT 02/02 A3014 RMK A01 T00200020  RH  100%=      5-min Rain = 0
KCL2 101426Z 16009KT 02/02 A3014 RMK A01 T00210020  RH  100%=      5-min Rain = 0
KCL2 101427Z 16009KT 02/02 A3014 RMK A01 T00210020  RH  100%=      5-min Rain = 0
KCL2 101428Z 16009KT 02/02 A3014 RMK A01 T00200020  RH  100%=      5-min Rain = 0
KCL2 101429Z 17008KT 02/02 A3014 RMK A01 T00200020  RH  100%=      5-min Rain = 0
KCL2 101430Z 16007KT 02/02 A3014 RMK A01 T00210021  RH  100%=      5-min Rain = 0
KCL2 101431Z 16008KT 02/02 A3014 RMK A01 T00210021  RH  100%=      5-min Rain = 0
KCL2 101432Z 16007KT 02/02 A3014 RMK A01 T00210021  RH  100%=      5-min Rain = 0
KCL2 101433Z 16007KT 02/02 A3014 RMK A01 T00220022  RH  100%=      5-min Rain = 0
KCL2 101434Z 16007KT 02/02 A3014 RMK A01 T00230022  RH  100%=      5-min Rain = 0
KCL2 101435Z 17007KT 02/02 A3014 RMK A01 T00230023  RH  100%=      5-min Rain = 0
KCL2 101436Z 17007KT 02/02 A3014 RMK A01 T00230023  RH  100%=      5-min Rain = 0
KCL2 101437Z 17007KT 02/02 A3014 RMK A01 T00230023  RH  100%=      5-min Rain = 0
KCL2 101438Z 16008KT 02/02 A3014 RMK A01 T00240023  RH  100%=      5-min Rain = 0
KCL2 101439Z 17007KT 02/02 A3014 RMK A01 T00240024  RH  100%=      5-min Rain = 0
KCL2 101440Z 16007KT 02/02 A3014 RMK A01 T00240024  RH  100%=      5-min Rain = 0
KCL2 101441Z 16008KT 02/02 A3014 RMK A01 T00240024  RH  100%=      5-min Rain = 0
KCL2 101442Z 16008KT 02/02 A3014 RMK A01 T00240024  RH  100%=      5-min Rain = 0
KCL2 101443Z 16011KT 03/03 A3013 RMK A01 T00250025  RH  100%=      5-min Rain = 0
KCL2 101444Z 16010KT 03/03 A3013 RMK A01 T00250025  RH  100%=      5-min Rain = 0
KCL2 101445Z 16009KT 03/03 A3014 RMK A01 T00250025  RH  100%=      5-min Rain = 0
KCL2 101446Z 16009KT 03/03 A3014 RMK A01 T00250025  RH  100%=      5-min Rain = 0
KCL2 101447Z 16011KT 03/03 A3014 RMK A01 T00250025  RH  100%=      5-min Rain = 0
KCL2 101448Z 16013KT 03/03 A3014 RMK A01 T00260026  RH  100%=      5-min Rain = 0
KCL2 101449Z 17009KT 03/03 A3013 RMK A01 T00250025  RH  100%=      5-min Rain = 0
KCL2 101450Z 17011KT 03/03 A3014 RMK A01 T00250025  RH  100%=      5-min Rain = 0
KCL2 101451Z 16010KT 03/03 A3013 RMK A01 T00250025  RH  100%=      5-min Rain = 0
KCL2 101452Z 17009G14KT 03/03 A3014 RMK A01 T00250025  RH  100%=      5-min Rain = 0
KCL2 101453Z 18011KT 03/03 A3013 RMK A01 T00250025  RH  100%=      5-min Rain = 0
KCL2 101454Z 17009KT 03/03 A3013 RMK A01 T00250025  RH  100%=      5-min Rain = 0
KCL2 101455Z 16010G15KT 03/03 A3013 RMK A01 T00250025  RH  100%=      5-min Rain = 0
KCL2 101456Z 16011KT 03/03 A3014 RMK A01 T00260025  RH  100%=      5-min Rain = 0
KCL2 101457Z 16010KT 03/03 A3013 RMK A01 T00250025  RH  100%=      5-min Rain = 0
KCL2 101458Z 16010KT 03/03 A3014 RMK A01 T00260026  RH  100%=      5-min Rain = 0
KCL2 101459Z 17010KT 03/03 A3014 RMK A01 T00260026  RH  100%=      5-min Rain = 0
KCL2 101500Z 17010KT 03/03 A3014 RMK A01 T00270027  RH  100%=      5-min Rain = 0
KCL2 101501Z 17010KT 03/03 A3014 RMK A01 T00270027  RH  100%=      5-min Rain = 0
KCL2 101502Z 16009KT 03/03 A3014 RMK A01 T00270027  RH  100%=      5-min Rain = 0
KCL2 101503Z 17010KT 03/03 A3014 RMK A01 T00270027  RH  100%=      5-min Rain = 0
KCL2 101504Z 17008KT 03/03 A3014 RMK A01 T00270026  RH  100%=      5-min Rain = 0
KCL2 101505Z 17009KT 03/03 A3014 RMK A01 T00260026  RH  100%=      5-min Rain = 0
KCL2 101506Z 18009KT 03/03 A3014 RMK A01 T00270027  RH  100%=      5-min Rain = 0
KCL2 101507Z 17008KT 03/03 A3014 RMK A01 T00270027  RH  100%=      5-min Rain = 0
KCL2 101508Z 17007KT 03/03 A3014 RMK A01 T00280028  RH  100%=      5-min Rain = 0
KCL2 101509Z 17008KT 03/03 A3014 RMK A01 T00280028  RH  100%=      5-min Rain = 0
KCL2 101510Z 17007KT 03/03 A3014 RMK A01 T00280028  RH  100%=      5-min Rain = 0
KCL2 101511Z 16006KT 03/03 A3013 RMK A01 T00290029  RH  100%=      5-min Rain = 0
KCL2 101512Z 17005KT 03/03 A3013 RMK A01 T00290029  RH  100%=      5-min Rain = 0
KCL2 101513Z 16007KT 03/03 A3013 RMK A01 T00310031  RH  100%=      5-min Rain = 0
KCL2 101514Z 16009KT 03/03 A3013 RMK A01 T00310031  RH  100%=      5-min Rain = 0
KCL2 101515Z 16009KT 03/03 A3013 RMK A01 T00310031  RH  100%=      5-min Rain = 0
KCL2 101516Z 15010KT 03/03 A3013 RMK A01 T00310031  RH  100%=      5-min Rain = 0
KCL2 101517Z 16009KT 03/03 A3013 RMK A01 T00320032  RH  100%=      5-min Rain = 0
KCL2 101518Z 16011KT 03/03 A3013 RMK A01 T00320032  RH  100%=      5-min Rain = 0
KCL2 101519Z 15010KT 03/03 A3013 RMK A01 T00320032  RH  100%=      5-min Rain = 0
KCL2 101520Z 16011KT 03/03 A3013 RMK A01 T00320032  RH  100%=      5-min Rain = 0
KCL2 101521Z 16013KT 03/03 A3013 RMK A01 T00310031  RH  100%=      5-min Rain = 0
KCL2 101522Z 15014KT 03/03 A3013 RMK A01 T00320031  RH  100%=      5-min Rain = 0
KCL2 101523Z 16012KT 03/03 A3013 RMK A01 T00320032  RH  100%=      5-min Rain = 0
KCL2 101524Z 17011KT 03/03 A3013 RMK A01 T00320031  RH  100%=      5-min Rain = 0
KCL2 101525Z 16009KT 03/03 A3013 RMK A01 T00320032  RH  100%=      5-min Rain = 0
KCL2 101526Z 16011KT 03/03 A3013 RMK A01 T00330032  RH  100%=      5-min Rain = 0
KCL2 101527Z 17012KT 03/03 A3013 RMK A01 T00330033  RH  100%=      5-min Rain = 0
KCL2 101528Z 17010KT 03/03 A3013 RMK A01 T00320032  RH  100%=      5-min Rain = 0
KCL2 101529Z 15009KT 03/03 A3013 RMK A01 T00320032  RH  100%=      5-min Rain = 0
KCL2 101530Z 15010KT 03/03 A3013 RMK A01 T00330033  RH  100%=      5-min Rain = 0
KCL2 101531Z 16012KT 03/03 A3013 RMK A01 T00330033  RH  100%=      5-min Rain = 0
KCL2 101532Z 16013KT 03/03 A3012 RMK A01 T00330033  RH  100%=      5-min Rain = 0
KCL2 101533Z 16013KT 03/03 A3012 RMK A01 T00320032  RH  100%=      5-min Rain = 0
KCL2 101534Z 16012KT 03/03 A3012 RMK A01 T00320032  RH  100%=      5-min Rain = 0
KCL2 101535Z 14012KT 03/03 A3013 RMK A01 T00320032  RH  100%=      5-min Rain = 0
KCL2 101536Z 16011KT 03/03 A3013 RMK A01 T00330033  RH  100%=      5-min Rain = 0
KCL2 101537Z 17009KT 03/03 A3014 RMK A01 T00330033  RH  100%=      5-min Rain = 0
KCL2 101538Z 18008KT 03/03 A3014 RMK A01 T00340034  RH  100%=      5-min Rain = 0
KCL2 101539Z 18010KT 03/03 A3014 RMK A01 T00340034  RH  100%=      5-min Rain = 0
KCL2 101540Z 17010KT 04/04 A3014 RMK A01 T00350035  RH  100%=      5-min Rain = 0
KCL2 101541Z 17010KT 03/03 A3014 RMK A01 T00340034  RH  100%=      5-min Rain = 0
KCL2 101542Z 16009KT 03/03 A3014 RMK A01 T00340034  RH  100%=      5-min Rain = 0
KCL2 101543Z 17008KT 04/03 A3014 RMK A01 T00350034  RH  100%=      5-min Rain = 0
KCL2 101544Z 17008KT 04/04 A3014 RMK A01 T00350035  RH  100%=      5-min Rain = 0
KCL2 101545Z 16009KT 04/04 A3014 RMK A01 T00350035  RH  100%=      5-min Rain = 0
KCL2 101546Z 18007KT 04/03 A3014 RMK A01 T00350034  RH  100%=      5-min Rain = 0
KCL2 101547Z 19006KT 04/04 A3014 RMK A01 T00350035  RH  100%=      5-min Rain = 0
KCL2 101548Z 19005KT 04/04 A3014 RMK A01 T00360036  RH  100%=      5-min Rain = 0
KCL2 101549Z 18008KT 04/04 A3014 RMK A01 T00370037  RH  100%=      5-min Rain = 0
KCL2 101550Z 18008KT 04/04 A3014 RMK A01 T00370037  RH  100%=      5-min Rain = 0
KCL2 101551Z 18005KT 04/04 A3014 RMK A01 T00370037  RH  100%=      5-min Rain = 0
KCL2 101552Z 18006KT 04/04 A3014 RMK A01 T00370037  RH  100%=      5-min Rain = 0
KCL2 101553Z 18008KT 04/04 A3014 RMK A01 T00380038  RH  100%=      5-min Rain = 0
KCL2 101554Z 18009KT 04/04 A3014 RMK A01 T00380038  RH  100%=      5-min Rain = 0
KCL2 101555Z 18008KT 04/04 A3014 RMK A01 T00380038  RH  100%=      5-min Rain = 0
KCL2 101556Z 17009KT 04/04 A3014 RMK A01 T00390038  RH  100%=      5-min Rain = 0
KCL2 101557Z 19009KT 04/04 A3014 RMK A01 T00390038  RH  100%=      5-min Rain = 0
KCL2 101558Z 19008KT 04/04 A3014 RMK A01 T00390038  RH  100%=      5-min Rain = 0
KCL2 101559Z 19011KT 04/04 A3014 RMK A01 T00390038  RH  100%=      5-min Rain = 0
KCL2 101600Z 19010KT 04/04 A3014 RMK A01 T00390038  RH  100%=      5-min Rain = 0
KCL2 101601Z 19010KT 04/04 A3014 RMK A01 T00390038  RH  100%=      5-min Rain = 0
KCL2 101602Z 19009KT 04/04 A3014 RMK A01 T00390038  RH  099%=      5-min Rain = 0
KCL2 101603Z 19011KT 04/04 A3014 RMK A01 T00390039  RH  100%=      5-min Rain = 0
KCL2 101604Z 19009KT 04/04 A3014 RMK A01 T00390038  RH  099%=      5-min Rain = 0
KCL2 101605Z 19010KT 04/04 A3014 RMK A01 T00390038  RH  099%=      5-min Rain = 0
KCL2 101606Z 19009KT 04/04 A3014 RMK A01 T00390038  RH  099%=      5-min Rain = 0
KCL2 101607Z 19008KT 04/04 A3014 RMK A01 T00410040  RH  099%=      5-min Rain = 0
KCL2 101608Z 19010KT 04/04 A3014 RMK A01 T00420041  RH  099%=      5-min Rain = 0
KCL2 101609Z 18009KT 04/04 A3014 RMK A01 T00420041  RH  099%=      5-min Rain = 0
KCL2 101610Z 18010KT 04/04 A3014 RMK A01 T00420041  RH  099%=      5-min Rain = 0
KCL2 101611Z 19010KT 04/04 A3014 RMK A01 T00420040  RH  099%=      5-min Rain = 0
KCL2 101612Z 18012KT 04/04 A3014 RMK A01 T00420040  RH  099%=      5-min Rain = 0
KCL2 101613Z 19010KT 04/04 A3014 RMK A01 T00410039  RH  099%=      5-min Rain = 0
KCL2 101614Z 19008KT 04/04 A3015 RMK A01 T00410039  RH  099%=      5-min Rain = 0
KCL2 101615Z 19009KT 04/04 A3015 RMK A01 T00410039  RH  099%=      5-min Rain = 0
KCL2 101616Z 18010KT 04/04 A3015 RMK A01 T00410039  RH  099%=      5-min Rain = 0
KCL2 101617Z 19006KT 04/04 A3015 RMK A01 T00410040  RH  099%=      5-min Rain = 0
KCL2 101618Z 18009KT 04/04 A3015 RMK A01 T00410039  RH  099%=      5-min Rain = 0
KCL2 101619Z 18008KT 04/04 A3015 RMK A01 T00410039  RH  099%=      5-min Rain = 0
KCL2 101620Z 19006KT 04/04 A3015 RMK A01 T00410040  RH  099%=      5-min Rain = 0
KCL2 101621Z 18007KT 04/04 A3015 RMK A01 T00420040  RH  099%=      5-min Rain = 0
KCL2 101622Z 19008KT 04/04 A3016 RMK A01 T00430041  RH  099%=      5-min Rain = 0
KCL2 101623Z 19008KT 04/04 A3015 RMK A01 T00430041  RH  099%=      5-min Rain = 0
KCL2 101624Z 20009KT 04/04 A3015 RMK A01 T00430041  RH  099%=      5-min Rain = 0
KCL2 101625Z 19007KT 04/04 A3015 RMK A01 T00430040  RH  099%=      5-min Rain = 0
KCL2 101626Z 19008KT 04/04 A3015 RMK A01 T00430041  RH  099%=      5-min Rain = 0
KCL2 101627Z 20007KT 04/04 A3015 RMK A01 T00440041  RH  099%=      5-min Rain = 0
KCL2 101628Z 20008KT 04/04 A3016 RMK A01 T00440042  RH  099%=      5-min Rain = 0
KCL2 101629Z 19008KT 04/04 A3015 RMK A01 T00440042  RH  098%=      5-min Rain = 0
KCL2 101630Z 18007KT 04/04 A3015 RMK A01 T00430041  RH  098%=      5-min Rain = 0
KCL2 101631Z 18008KT 04/04 A3015 RMK A01 T00430041  RH  098%=      5-min Rain = 0
KCL2 101632Z 19008KT 04/04 A3015 RMK A01 T00440041  RH  098%=      5-min Rain = 0
KCL2 101633Z 19008KT 04/04 A3015 RMK A01 T00440042  RH  098%=      5-min Rain = 0
KCL2 101634Z 19008KT 04/04 A3015 RMK A01 T00440042  RH  098%=      5-min Rain = 0
KCL2 101635Z 18005KT 04/04 A3015 RMK A01 T00440041  RH  098%=      5-min Rain = 0
KCL2 101636Z 18007KT 04/04 A3015 RMK A01 T00440041  RH  098%=      5-min Rain = 0
KCL2 101637Z 18008KT 05/04 A3015 RMK A01 T00450042  RH  098%=      5-min Rain = 0
KCL2 101638Z 19008KT 05/04 A3015 RMK A01 T00450042  RH  098%=      5-min Rain = 0
KCL2 101639Z 18007KT 05/04 A3015 RMK A01 T00450042  RH  098%=      5-min Rain = 0
KCL2 101640Z 18007KT 05/04 A3015 RMK A01 T00450042  RH  098%=      5-min Rain = 0
KCL2 101641Z 17007KT 05/04 A3015 RMK A01 T00460043  RH  098%=      5-min Rain = 0
KCL2 101642Z 17006KT 05/04 A3015 RMK A01 T00460043  RH  098%=      5-min Rain = 0
KCL2 101643Z 17007KT 05/04 A3015 RMK A01 T00460043  RH  098%=      5-min Rain = 0
KCL2 101644Z 17007KT 05/04 A3015 RMK A01 T00460043  RH  098%=      5-min Rain = 0
KCL2 101645Z 17006KT 05/04 A3015 RMK A01 T00460043  RH  098%=      5-min Rain = 0
KCL2 101646Z 16008KT 05/04 A3015 RMK A01 T00460043  RH  098%=      5-min Rain = 0
KCL2 101647Z 16006KT 05/04 A3015 RMK A01 T00460043  RH  098%=      5-min Rain = 0
KCL2 101648Z 15005KT 05/04 A3014 RMK A01 T00470043  RH  098%=      5-min Rain = 0
KCL2 101649Z 17006KT 05/04 A3014 RMK A01 T00470044  RH  098%=      5-min Rain = 0
KCL2 101650Z 16007KT 05/04 A3014 RMK A01 T00470044  RH  098%=      5-min Rain = 0
KCL2 101651Z 17009KT 05/04 A3014 RMK A01 T00470044  RH  098%=      5-min Rain = 0
KCL2 101652Z 16006KT 05/04 A3014 RMK A01 T00470044  RH  098%=      5-min Rain = 0
KCL2 101653Z 15006KT 05/04 A3014 RMK A01 T00470044  RH  098%=      5-min Rain = 0
KCL2 101654Z 15008KT 05/04 A3013 RMK A01 T00480044  RH  098%=      5-min Rain = 0
KCL2 101655Z 14008KT 05/04 A3013 RMK A01 T00480044  RH  098%=      5-min Rain = 0
KCL2 101656Z 15009KT 05/04 A3012 RMK A01 T00470043  RH  097%=      5-min Rain = 0
KCL2 101657Z 15008KT 05/04 A3012 RMK A01 T00470043  RH  097%=      5-min Rain = 0
KCL2 101658Z 15008KT 05/04 A3012 RMK A01 T00470043  RH  097%=      5-min Rain = 0
KCL2 101659Z 16008KT 05/04 A3012 RMK A01 T00470043  RH  097%=      5-min Rain = 0
KCL2 101700Z 16008KT 05/04 A3012 RMK A01 T00480044  RH  098%=      5-min Rain = 0
KCL2 101701Z 15008KT 05/05 A3012 RMK A01 T00480045  RH  098%=      5-min Rain = 0
KCL2 101702Z 16007KT 05/05 A3012 RMK A01 T00480045  RH  098%=      5-min Rain = 0
KCL2 101703Z 17009KT 05/05 A3012 RMK A01 T00490046  RH  098%=      5-min Rain = 0
KCL2 101704Z 17009KT 05/05 A3012 RMK A01 T00490046  RH  098%=      5-min Rain = 0
KCL2 101705Z 17009KT 05/05 A3012 RMK A01 T00490045  RH  097%=      5-min Rain = 0
KCL2 101706Z 17009KT 05/05 A3012 RMK A01 T00490045  RH  097%=      5-min Rain = 0
KCL2 101707Z 18009KT 05/05 A3012 RMK A01 T00490045  RH  098%=      5-min Rain = 0
KCL2 101708Z 16010KT 05/05 A3012 RMK A01 T00490046  RH  098%=      5-min Rain = 0
KCL2 101709Z 17010KT 05/05 A3012 RMK A01 T00500046  RH  097%=      5-min Rain = 0
KCL2 101710Z 18008KT 05/05 A3012 RMK A01 T00490045  RH  097%=      5-min Rain = 0
KCL2 101711Z 18008KT 05/05 A3012 RMK A01 T00490046  RH  097%=      5-min Rain = 0
KCL2 101712Z 18007KT 05/05 A3012 RMK A01 T00500046  RH  098%=      5-min Rain = 0
KCL2 101713Z 17006KT 05/05 A3012 RMK A01 T00500046  RH  097%=      5-min Rain = 0
KCL2 101714Z 18009KT 05/05 A3012 RMK A01 T00500047  RH  097%=      5-min Rain = 0
KCL2 101715Z 19010KT 05/05 A3012 RMK A01 T00500045  RH  097%=      5-min Rain = 0
KCL2 101716Z 18009KT 05/04 A3013 RMK A01 T00490044  RH  097%=      5-min Rain = 0
KCL2 101717Z 18011KT 05/05 A3013 RMK A01 T00490045  RH  097%=      5-min Rain = 0
KCL2 101718Z 17011KT 05/05 A3012 RMK A01 T00490045  RH  097%=      5-min Rain = 0
KCL2 101719Z 17011KT 05/05 A3012 RMK A01 T00490045  RH  097%=      5-min Rain = 0
KCL2 101720Z 17011KT 05/05 A3012 RMK A01 T00490045  RH  097%=      5-min Rain = 0
KCL2 101721Z 17010KT 05/05 A3012 RMK A01 T00490045  RH  097%=      5-min Rain = 0
KCL2 101722Z 17011KT 05/04 A3012 RMK A01 T00490044  RH  097%=      5-min Rain = 0
KCL2 101723Z 17009KT 05/04 A3012 RMK A01 T00490044  RH  097%=      5-min Rain = 0
KCL2 101724Z 16007KT 05/05 A3011 RMK A01 T00490045  RH  097%=      5-min Rain = 0
KCL2 101725Z 16009KT 05/05 A3011 RMK A01 T00500046  RH  097%=      5-min Rain = 0
KCL2 101726Z 17011KT 05/05 A3011 RMK A01 T00510047  RH  097%=      5-min Rain = 0
KCL2 101727Z 16009KT 05/05 A3011 RMK A01 T00500045  RH  097%=      5-min Rain = 0
KCL2 101728Z 16011KT 05/05 A3011 RMK A01 T00510046  RH  097%=      5-min Rain = 0
KCL2 101729Z 17008KT 05/05 A3012 RMK A01 T00510047  RH  097%=      5-min Rain = 0
KCL2 101730Z 17006KT 05/05 A3012 RMK A01 T00510047  RH  097%=      5-min Rain = 0
KCL2 101731Z 19008KT 05/05 A3013 RMK A01 T00520047  RH  097%=      5-min Rain = 0
KCL2 101732Z 18007KT 05/05 A3013 RMK A01 T00520046  RH  096%=      5-min Rain = 0
KCL2 101733Z 20005KT 05/04 A3013 RMK A01 T00510044  RH  096%=      5-min Rain = 0
KCL2 101734Z 20006KT 05/04 A3014 RMK A01 T00510044  RH  096%=      5-min Rain = 0
KCL2 101735Z 18006KT 05/05 A3014 RMK A01 T00510045  RH  096%=      5-min Rain = 0
KCL2 101736Z 16004KT 05/04 A3014 RMK A01 T00500044  RH  096%=      5-min Rain = 0
KCL2 101737Z 18005KT 05/04 A3014 RMK A01 T00500044  RH  096%=      5-min Rain = 0
KCL2 101738Z 17005KT 05/05 A3013 RMK A01 T00500045  RH  096%=      5-min Rain = 0
KCL2 101739Z 19004KT 05/05 A3013 RMK A01 T00510045  RH  096%=      5-min Rain = 0
KCL2 101740Z 18005KT 05/05 A3013 RMK A01 T00510046  RH  096%=      5-min Rain = 0
KCL2 101741Z 19007KT 05/05 A3013 RMK A01 T00510046  RH  096%=      5-min Rain = 0
KCL2 101742Z 17005KT 05/05 A3013 RMK A01 T00510046  RH  096%=      5-min Rain = 0
KCL2 101743Z 19008KT 05/05 A3013 RMK A01 T00510045  RH  096%=      5-min Rain = 0
KCL2 101744Z 20007KT 05/05 A3013 RMK A01 T00510045  RH  096%=      5-min Rain = 0
KCL2 101745Z 20007KT 05/05 A3013 RMK A01 T00510045  RH  096%=      5-min Rain = 0
KCL2 101746Z 20005KT 05/05 A3013 RMK A01 T00510046  RH  096%=      5-min Rain = 0
KCL2 101747Z 19005KT 05/05 A3013 RMK A01 T00510046  RH  096%=      5-min Rain = 0
KCL2 101748Z 20004KT 05/05 A3012 RMK A01 T00510046  RH  096%=      5-min Rain = 0
KCL2 101749Z 18003KT 05/05 A3011 RMK A01 T00520046  RH  096%=      5-min Rain = 0
KCL2 101750Z 14004KT 05/05 A3011 RMK A01 T00520047  RH  096%=      5-min Rain = 0
KCL2 101751Z 14007KT 05/05 A3011 RMK A01 T00530048  RH  096%=      5-min Rain = 0
KCL2 101752Z 16006KT 05/05 A3011 RMK A01 T00530047  RH  096%=      5-min Rain = 0
KCL2 101753Z 18005KT 05/05 A3012 RMK A01 T00510045  RH  095%=      5-min Rain = 0
KCL2 101754Z 21004KT 05/05 A3013 RMK A01 T00510045  RH  096%=      5-min Rain = 0
KCL2 101755Z 20005KT 05/05 A3013 RMK A01 T00510045  RH  096%=      5-min Rain = 0
KCL2 101756Z 19004KT 05/05 A3013 RMK A01 T00510045  RH  096%=      5-min Rain = 0
KCL2 101757Z 18005KT 05/05 A3012 RMK A01 T00510045  RH  096%=      5-min Rain = 0
KCL2 101758Z 17006KT 05/05 A3012 RMK A01 T00510045  RH  096%=      5-min Rain = 0
KCL2 101759Z 17006KT 05/05 A3011 RMK A01 T00510045  RH  096%=      5-min Rain = 0
KCL2 101800Z 16005KT 05/05 A3011 RMK A01 T00520046  RH  096%=      5-min Rain = 0
KCL2 101801Z 17006KT 05/05 A3011 RMK A01 T00530047  RH  096%=      5-min Rain = 0
KCL2 101802Z 17005KT 05/05 A3011 RMK A01 T00530047  RH  096%=      5-min Rain = 0
KCL2 101803Z 18004KT 05/05 A3011 RMK A01 T00530047  RH  096%=      5-min Rain = 0
KCL2 101804Z 17004KT 05/05 A3011 RMK A01 T00530047  RH  096%=      5-min Rain = 0
KCL2 101805Z 17005KT 05/05 A3011 RMK A01 T00530047  RH  096%=      5-min Rain = 0
KCL2 101806Z 18004KT 05/05 A3011 RMK A01 T00530047  RH  096%=      5-min Rain = 0
KCL2 101807Z 17004KT 05/05 A3011 RMK A01 T00540048  RH  096%=      5-min Rain = 0
KCL2 101808Z 18005KT 05/05 A3012 RMK A01 T00540048  RH  096%=      5-min Rain = 0
KCL2 101809Z 18006KT 06/05 A3012 RMK A01 T00550049  RH  096%=      5-min Rain = 0
KCL2 101810Z 18006KT 06/05 A3011 RMK A01 T00550048  RH  095%=      5-min Rain = 0
KCL2 101811Z 17006KT 06/05 A3011 RMK A01 T00550047  RH  095%=      5-min Rain = 0
KCL2 101812Z 16006KT 05/05 A301 RMK A01 T00540047  RH  095%=      5-min Rain = 0
KCL2 101813Z 15006KT 05/05 A301 RMK A01 T00540047  RH  095%=      5-min Rain = 0
KCL2 101814Z 16006KT 06/05 A3009 RMK A01 T00550049  RH  095%=      5-min Rain = 0
KCL2 101815Z 15007KT 06/05 A3009 RMK A01 T00560049  RH  095%=      5-min Rain = 0
KCL2 101816Z 15006KT 06/05 A3009 RMK A01 T00560049  RH  095%=      5-min Rain = 0
KCL2 101817Z 15003KT 06/05 A3009 RMK A01 T00560048  RH  095%=      5-min Rain = 0
KCL2 101818Z 15004KT 06/05 A3009 RMK A01 T00570049  RH  095%=      5-min Rain = 0
KCL2 101819Z 16004KT 06/05 A3009 RMK A01 T00570048  RH  094%=      5-min Rain = 0
KCL2 101820Z 15004KT 06/05 A301 RMK A01 T00560047  RH  094%=      5-min Rain = 0
KCL2 101821Z 14005KT 06/05 A301 RMK A01 T00550047  RH  094%=      5-min Rain = 0
KCL2 101822Z 14006KT 06/05 A301 RMK A01 T00550047  RH  095%=      5-min Rain = 0
KCL2 101823Z 16005KT 06/05 A301 RMK A01 T00560048  RH  095%=      5-min Rain = 0
KCL2 101824Z 17006KT 06/05 A301 RMK A01 T00570050  RH  095%=      5-min Rain = 0
KCL2 101825Z 18006KT 06/05 A3011 RMK A01 T00580050  RH  095%=      5-min Rain = 0
KCL2 101826Z 21006KT 06/05 A3012 RMK A01 T00580050  RH  095%=      5-min Rain = 0
KCL2 101827Z 21006KT 06/05 A3012 RMK A01 T00570049  RH  094%=      5-min Rain = 0
KCL2 101828Z 20005KT 06/05 A3012 RMK A01 T00570048  RH  094%=      5-min Rain = 0
KCL2 101829Z 19006KT 06/05 A3012 RMK A01 T00570050  RH  095%=      5-min Rain = 0
KCL2 101830Z 19005KT 06/05 A3012 RMK A01 T00580050  RH  095%=      5-min Rain = 0
KCL2 101831Z 19005KT 06/05 A3012 RMK A01 T00580050  RH  095%=      5-min Rain = 0
KCL2 101832Z 22005KT 06/05 A3013 RMK A01 T00590052  RH  095%=      5-min Rain = 0
KCL2 101833Z 22005KT 06/05 A3013 RMK A01 T00590051  RH  095%=      5-min Rain = 0
KCL2 101834Z 21006KT 06/05 A3013 RMK A01 T00590050  RH  094%=      5-min Rain = 0
KCL2 101835Z 20009KT 06/05 A3013 RMK A01 T00590050  RH  094%=      5-min Rain = 0
KCL2 101836Z 20008KT 06/05 A3013 RMK A01 T00580049  RH  094%=      5-min Rain = 0
KCL2 101837Z 21006KT 06/05 A3013 RMK A01 T00580049  RH  094%=      5-min Rain = 0
KCL2 101838Z 21005KT 06/05 A3013 RMK A01 T00580050  RH  095%=      5-min Rain = 0
KCL2 101839Z 20005KT 06/05 A3012 RMK A01 T00590051  RH  095%=      5-min Rain = 0
KCL2 101840Z 21005KT 06/05 A3012 RMK A01 T00600051  RH  095%=      5-min Rain = 0
KCL2 101841Z 19005KT 06/05 A3012 RMK A01 T00610053  RH  095%=      5-min Rain = 0
KCL2 101842Z 19007KT 06/05 A3012 RMK A01 T00610053  RH  094%=      5-min Rain = 0
KCL2 101843Z 19006KT 06/05 A3012 RMK A01 T00620052  RH  094%=      5-min Rain = 0
KCL2 101844Z 19007KT 06/05 A3012 RMK A01 T00610052  RH  094%=      5-min Rain = 0
KCL2 101845Z 20007KT 06/05 A3012 RMK A01 T00610051  RH  093%=      5-min Rain = 0
KCL2 101846Z 21006KT 06/05 A3012 RMK A01 T00610051  RH  093%=      5-min Rain = 0
KCL2 101847Z 20006KT 06/05 A3012 RMK A01 T00610050  RH  093%=      5-min Rain = 0
KCL2 101848Z 21005KT 06/05 A3012 RMK A01 T00610050  RH  093%=      5-min Rain = 0
KCL2 101849Z 21005KT 06/05 A3012 RMK A01 T00610051  RH  094%=      5-min Rain = 0
KCL2 101850Z 22004KT 06/05 A3012 RMK A01 T00610052  RH  094%=      5-min Rain = 0
KCL2 101851Z 21004KT 06/05 A3012 RMK A01 T00630054  RH  094%=      5-min Rain = 0
KCL2 101852Z 19004KT 06/05 A3012 RMK A01 T00630054  RH  094%=      5-min Rain = 0
KCL2 101853Z 20004KT 06/05 A3012 RMK A01 T00640053  RH  093%=      5-min Rain = 0
KCL2 101854Z 22005KT 06/05 A3012 RMK A01 T00630052  RH  092%=      5-min Rain = 0
KCL2 101855Z 22004KT 06/05 A3012 RMK A01 T00630052  RH  093%=      5-min Rain = 0
KCL2 101856Z 21004KT 06/05 A3012 RMK A01 T00630053  RH  093%=      5-min Rain = 0
KCL2 101857Z 20006KT 06/05 A3011 RMK A01 T00640054  RH  093%=      5-min Rain = 0
KCL2 101858Z 19007KT 07/05 A3011 RMK A01 T00650054  RH  093%=      5-min Rain = 0
KCL2 101859Z 20006KT 06/05 A3011 RMK A01 T00640053  RH  092%=      5-min Rain = 0
KCL2 101900Z 19006KT 06/05 A3011 RMK A01 T00640052  RH  092%=      5-min Rain = 0
KCL2 101901Z 19005KT 06/05 A3011 RMK A01 T00640053  RH  093%=      5-min Rain = 0
KCL2 101902Z 20004KT 06/05 A3011 RMK A01 T00640054  RH  093%=      5-min Rain = 0
KCL2 101903Z 19004KT 06/05 A3011 RMK A01 T00640053  RH  093%=      5-min Rain = 0
KCL2 101904Z 20004KT 07/05 A3011 RMK A01 T00650054  RH  093%=      5-min Rain = 0
KCL2 101905Z 20004KT 07/06 A3011 RMK A01 T00660056  RH  093%=      5-min Rain = 0
KCL2 101906Z 19005KT 07/06 A301 RMK A01 T00680057  RH  093%=      5-min Rain = 0
KCL2 101907Z 19006KT 07/06 A301 RMK A01 T00680056  RH  092%=      5-min Rain = 0
KCL2 101908Z 18006KT 07/06 A301 RMK A01 T00680055  RH  091%=      5-min Rain = 0
KCL2 101909Z 19006KT 07/06 A301 RMK A01 T00680055  RH  091%=      5-min Rain = 0
KCL2 101910Z 20004KT 07/06 A301 RMK A01 T00690055  RH  091%=      5-min Rain = 0
KCL2 101911Z 20005KT 07/06 A301 RMK A01 T00690056  RH  092%=      5-min Rain = 0
KCL2 101912Z 18005KT 07/06 A301 RMK A01 T00700056  RH  091%=      5-min Rain = 0
KCL2 101913Z 20004KT 07/06 A301 RMK A01 T00710057  RH  091%=      5-min Rain = 0
KCL2 101914Z 22003KT 07/06 A3009 RMK A01 T00710056  RH  091%=      5-min Rain = 0
KCL2 101915Z 20004KT 07/06 A3009 RMK A01 T00710056  RH  090%=      5-min Rain = 0
KCL2 101916Z 18005KT 07/06 A3009 RMK A01 T00700056  RH  090%=      5-min Rain = 0
KCL2 101917Z 20003KT 07/06 A3009 RMK A01 T00700057  RH  091%=      5-min Rain = 0
KCL2 101918Z 20006KT 07/06 A3009 RMK A01 T00710056  RH  091%=      5-min Rain = 0
KCL2 101919Z 19006KT 07/06 A3009 RMK A01 T00710056  RH  090%=      5-min Rain = 0
KCL2 101920Z 19006KT 07/06 A3009 RMK A01 T00710056  RH  091%=      5-min Rain = 0
KCL2 101921Z 20005KT 07/06 A3009 RMK A01 T00710057  RH  090%=      5-min Rain = 0
KCL2 101922Z 21006KT 07/06 A3009 RMK A01 T00710056  RH  090%=      5-min Rain = 0
KCL2 101923Z 21006KT 07/06 A3009 RMK A01 T00710055  RH  090%=      5-min Rain = 0
KCL2 101924Z 21005KT 07/06 A3009 RMK A01 T00710056  RH  090%=      5-min Rain = 0
KCL2 101925Z 20005KT 07/06 A3008 RMK A01 T00700056  RH  090%=      5-min Rain = 0
KCL2 101926Z 21006KT 07/06 A3008 RMK A01 T00710057  RH  091%=      5-min Rain = 0
KCL2 101927Z 21006KT 07/06 A3008 RMK A01 T00720058  RH  091%=      5-min Rain = 0
KCL2 101928Z 23007KT 07/06 A3008 RMK A01 T00730058  RH  090%=      5-min Rain = 0
KCL2 101929Z 20006KT 07/06 A3008 RMK A01 T00730057  RH  090%=      5-min Rain = 0
KCL2 101930Z 21006KT 07/06 A3008 RMK A01 T00730057  RH  090%=      5-min Rain = 0
KCL2 101931Z 22008KT 07/06 A3008 RMK A01 T00740058  RH  090%=      5-min Rain = 0
KCL2 101932Z 22008KT 07/06 A3008 RMK A01 T00740057  RH  089%=      5-min Rain = 0
KCL2 101933Z 23008KT 07/06 A3008 RMK A01 T00740057  RH  089%=      5-min Rain = 0
KCL2 101934Z 24008KT 07/06 A3008 RMK A01 T00740057  RH  089%=      5-min Rain = 0
KCL2 101935Z 22009KT 07/06 A3008 RMK A01 T00740057  RH  089%=      5-min Rain = 0
KCL2 101936Z 22010KT 07/06 A3008 RMK A01 T00740056  RH  089%=      5-min Rain = 0
KCL2 101937Z 21009KT 07/06 A3008 RMK A01 T00740056  RH  089%=      5-min Rain = 0
KCL2 101938Z 21008KT 08/06 A3008 RMK A01 T00750057  RH  089%=      5-min Rain = 0
KCL2 101939Z 22009KT 08/06 A3008 RMK A01 T00750056  RH  088%=      5-min Rain = 0
KCL2 101940Z 23008KT 08/06 A3007 RMK A01 T00750057  RH  088%=      5-min Rain = 0
KCL2 101941Z 24007KT 08/06 A3007 RMK A01 T00750057  RH  088%=      5-min Rain = 0
KCL2 101942Z 23007KT 08/06 A3007 RMK A01 T00750057  RH  088%=      5-min Rain = 0
KCL2 101943Z 23005KT 08/06 A3007 RMK A01 T00760057  RH  088%=      5-min Rain = 0
KCL2 101944Z 21005KT 08/06 A3007 RMK A01 T00760058  RH  089%=      5-min Rain = 0
KCL2 101945Z 19007KT 08/06 A3007 RMK A01 T00770059  RH  088%=      5-min Rain = 0
KCL2 101946Z 19007KT 08/06 A3007 RMK A01 T00770058  RH  088%=      5-min Rain = 0
KCL2 101947Z 19006KT 08/06 A3007 RMK A01 T00770059  RH  088%=      5-min Rain = 0
KCL2 101948Z 19006KT 08/06 A3007 RMK A01 T00770059  RH  088%=      5-min Rain = 0
KCL2 101949Z 20008KT 08/06 A3007 RMK A01 T00770059  RH  088%=      5-min Rain = 0
KCL2 101950Z 21007KT 08/06 A3007 RMK A01 T00780059  RH  088%=      5-min Rain = 0
KCL2 101951Z 20008KT 08/06 A3007 RMK A01 T00770058  RH  088%=      5-min Rain = 0
KCL2 101952Z 20007KT 08/06 A3007 RMK A01 T00770059  RH  088%=      5-min Rain = 0
KCL2 101953Z 21007KT 08/06 A3007 RMK A01 T00770059  RH  088%=      5-min Rain = 0
KCL2 101954Z 22006KT 08/06 A3007 RMK A01 T00770059  RH  088%=      5-min Rain = 0
KCL2 101955Z 22007KT 08/06 A3007 RMK A01 T00780060  RH  088%=      5-min Rain = 0
KCL2 101956Z 22007KT 08/06 A3007 RMK A01 T00780059  RH  088%=      5-min Rain = 0
KCL2 101957Z 22009KT 08/06 A3007 RMK A01 T00780059  RH  088%=      5-min Rain = 0
KCL2 101958Z 21009KT 08/06 A3007 RMK A01 T00780058  RH  088%=      5-min Rain = 0
KCL2 101959Z 21009KT 08/06 A3007 RMK A01 T00780058  RH  088%=      5-min Rain = 0
KCL2 102000Z 20009KT 08/06 A3007 RMK A01 T00770058  RH  088%=      5-min Rain = 0
KCL2 102001Z 21011KT 08/06 A3007 RMK A01 T00770058  RH  088%=      5-min Rain = 0
KCL2 102002Z 21011KT 08/06 A3007 RMK A01 T00770058  RH  087%=      5-min Rain = 0
KCL2 102003Z 21011KT 08/06 A3006 RMK A01 T00770057  RH  087%=      5-min Rain = 0
KCL2 102004Z 22010KT 08/06 A3006 RMK A01 T00770057  RH  087%=      5-min Rain = 0
KCL2 102005Z 21009KT 08/06 A3006 RMK A01 T00760057  RH  088%=      5-min Rain = 0
KCL2 102006Z 19007KT 08/06 A3006 RMK A01 T00770058  RH  088%=      5-min Rain = 0
KCL2 102007Z 18008KT 08/06 A3006 RMK A01 T00770058  RH  088%=      5-min Rain = 0
KCL2 102008Z 19007KT 08/06 A3006 RMK A01 T00770058  RH  088%=      5-min Rain = 0
KCL2 102009Z 21008KT 08/06 A3006 RMK A01 T00770059  RH  088%=      5-min Rain = 0
KCL2 102010Z 21009KT 08/06 A3006 RMK A01 T00770059  RH  088%=      5-min Rain = 0
KCL2 102011Z 21010KT 08/06 A3006 RMK A01 T00770059  RH  088%=      5-min Rain = 0
KCL2 102012Z 21009KT 08/06 A3006 RMK A01 T00770058  RH  088%=      5-min Rain = 0
KCL2 102013Z 22008KT 08/06 A3006 RMK A01 T00770059  RH  088%=      5-min Rain = 0
KCL2 102014Z 23009KT 08/06 A3006 RMK A01 T00770059  RH  088%=      5-min Rain = 0
KCL2 102015Z 22010KT 08/06 A3006 RMK A01 T00780059  RH  088%=      5-min Rain = 0
KCL2 102016Z 21009KT 08/06 A3006 RMK A01 T00780059  RH  088%=      5-min Rain = 0
KCL2 102017Z 22008KT 08/06 A3006 RMK A01 T00780059  RH  088%=      5-min Rain = 0
KCL2 102018Z 21007KT 08/06 A3006 RMK A01 T00780059  RH  088%=      5-min Rain = 0
KCL2 102019Z 21009KT 08/06 A3006 RMK A01 T00780059  RH  088%=      5-min Rain = 0
KCL2 102020Z 20011KT 08/06 A3006 RMK A01 T00780059  RH  088%=      5-min Rain = 0
KCL2 102021Z 20010KT 08/06 A3006 RMK A01 T00780059  RH  088%=      5-min Rain = 0
KCL2 102022Z 20010KT 08/06 A3006 RMK A01 T00780059  RH  088%=      5-min Rain = 0
KCL2 102023Z 19009KT 08/06 A3006 RMK A01 T00780059  RH  088%=      5-min Rain = 0
KCL2 102024Z 20008KT 08/06 A3006 RMK A01 T00780059  RH  088%=      5-min Rain = 0
KCL2 102025Z 21010KT 08/06 A3006 RMK A01 T00780059  RH  088%=      5-min Rain = 0
KCL2 102026Z 21009KT 08/06 A3006 RMK A01 T00780059  RH  088%=      5-min Rain = 0
KCL2 102027Z 21009KT 08/06 A3006 RMK A01 T00780059  RH  088%=      5-min Rain = 0
KCL2 102028Z 21010KT 08/06 A3006 RMK A01 T00790060  RH  088%=      5-min Rain = 0
KCL2 102029Z 21007KT 08/06 A3006 RMK A01 T00790059  RH  087%=      5-min Rain = 0
KCL2 102030Z 22010KT 08/06 A3005 RMK A01 T00790060  RH  088%=      5-min Rain = 0
KCL2 102031Z 21011KT 08/06 A3005 RMK A01 T00800060  RH  087%=      5-min Rain = 0
KCL2 102032Z 22009KT 08/06 A3005 RMK A01 T00800060  RH  087%=      5-min Rain = 0
KCL2 102033Z 22010KT 08/06 A3005 RMK A01 T00800059  RH  087%=      5-min Rain = 0
KCL2 102034Z 22007KT 08/06 A3005 RMK A01 T00800060  RH  087%=      5-min Rain = 0
KCL2 102035Z 21007KT 08/06 A3005 RMK A01 T00810061  RH  087%=      5-min Rain = 0
KCL2 102036Z 22010KT 08/06 A3005 RMK A01 T00820061  RH  087%=      5-min Rain = 0
KCL2 102037Z 21008KT 08/06 A3005 RMK A01 T00810059  RH  086%=      5-min Rain = 0
KCL2 102038Z 21010KT 08/06 A3006 RMK A01 T00810060  RH  087%=      5-min Rain = 0
KCL2 102039Z 21011KT 08/06 A3006 RMK A01 T00810060  RH  087%=      5-min Rain = 0
KCL2 102040Z 20012KT 08/06 A3005 RMK A01 T00810059  RH  086%=      5-min Rain = 0
KCL2 102041Z 20010KT 08/06 A3005 RMK A01 T00800059  RH  087%=      5-min Rain = 0
KCL2 102042Z 20008KT 08/06 A3005 RMK A01 T00800060  RH  087%=      5-min Rain = 0
KCL2 102043Z 20008KT 08/06 A3005 RMK A01 T00800060  RH  087%=      5-min Rain = 0
KCL2 102044Z 18008KT 08/06 A3005 RMK A01 T00810061  RH  087%=      5-min Rain = 0
KCL2 102045Z 19008KT 08/06 A3005 RMK A01 T00810061  RH  087%=      5-min Rain = 0
KCL2 102046Z 20007KT 08/06 A3005 RMK A01 T00810060  RH  087%=      5-min Rain = 0
KCL2 102047Z 21008KT 08/06 A3005 RMK A01 T00810060  RH  087%=      5-min Rain = 0
KCL2 102048Z 21009KT 08/06 A3005 RMK A01 T00810060  RH  087%=      5-min Rain = 0
KCL2 102049Z 22008KT 08/06 A3005 RMK A01 T00800060  RH  087%=      5-min Rain = 0
KCL2 102050Z 23008KT 08/06 A3005 RMK A01 T00800060  RH  087%=      5-min Rain = 0
KCL2 102051Z 23009KT 08/06 A3006 RMK A01 T00800060  RH  087%=      5-min Rain = 0
KCL2 102052Z 23010KT 08/06 A3006 RMK A01 T00800061  RH  088%=      5-min Rain = 0
KCL2 102053Z 23009KT 08/06 A3007 RMK A01 T00810060  RH  087%=      5-min Rain = 0
KCL2 102054Z 23008KT 08/06 A3007 RMK A01 T00800060  RH  087%=      5-min Rain = 0
KCL2 102055Z 23009KT 08/06 A3007 RMK A01 T00800060  RH  087%=      5-min Rain = 0
KCL2 102056Z 24008KT 08/06 A3007 RMK A01 T00800060  RH  087%=      5-min Rain = 0
KCL2 102057Z 24007KT 08/06 A3007 RMK A01 T00800060  RH  087%=      5-min Rain = 0
KCL2 102058Z 24007KT 08/06 A3007 RMK A01 T00800060  RH  087%=      5-min Rain = 0
KCL2 102059Z 25008KT 08/06 A3007 RMK A01 T00800060  RH  088%=      5-min Rain = 0
KCL2 102100Z 25008KT 08/06 A3007 RMK A01 T00800061  RH  088%=      5-min Rain = 0
KCL2 102101Z 25008KT 08/06 A3007 RMK A01 T00800060  RH  087%=      5-min Rain = 0
KCL2 102102Z 24008KT 08/06 A3007 RMK A01 T00800060  RH  087%=      5-min Rain = 0
KCL2 102103Z 25008KT 08/06 A3007 RMK A01 T00800061  RH  087%=      5-min Rain = 0
KCL2 102104Z 25010KT 08/06 A3007 RMK A01 T00800060  RH  087%=      5-min Rain = 0
KCL2 102105Z 24008KT 08/06 A3007 RMK A01 T00800060  RH  087%=      5-min Rain = 0
KCL2 102106Z 24007KT 08/06 A3007 RMK A01 T00800061  RH  088%=      5-min Rain = 0
KCL2 102107Z 24008KT 08/06 A3007 RMK A01 T00810061  RH  088%=      5-min Rain = 0
KCL2 102108Z 24007KT 08/06 A3007 RMK A01 T00810061  RH  087%=      5-min Rain = 0
KCL2 102109Z 25007KT 08/06 A3007 RMK A01 T00800061  RH  088%=      5-min Rain = 0
KCL2 102110Z 25009KT 08/06 A3007 RMK A01 T00810061  RH  087%=      5-min Rain = 0
KCL2 102111Z 24009KT 08/06 A3008 RMK A01 T00810061  RH  087%=      5-min Rain = 0
KCL2 102112Z 25009KT 08/06 A3008 RMK A01 T00810061  RH  087%=      5-min Rain = 0
KCL2 102113Z 25010KT 08/06 A3008 RMK A01 T00810060  RH  087%=      5-min Rain = 0
KCL2 102114Z 26010KT 08/06 A3008 RMK A01 T00800059  RH  087%=      5-min Rain = 0
KCL2 102115Z 25011KT 08/06 A3008 RMK A01 T00800060  RH  087%=      5-min Rain = 0
KCL2 102116Z 25011KT 08/06 A3009 RMK A01 T00800060  RH  087%=      5-min Rain = 0
KCL2 102117Z 25010KT 08/06 A3009 RMK A01 T00800060  RH  087%=      5-min Rain = 0
KCL2 102118Z 24011KT 08/06 A3009 RMK A01 T00800060  RH  087%=      5-min Rain = 0
KCL2 102119Z 24010KT 08/06 A3009 RMK A01 T00800060  RH  087%=      5-min Rain = 0
KCL2 102120Z 24011KT 08/06 A3009 RMK A01 T00800060  RH  087%=      5-min Rain = 0
KCL2 102121Z 24011KT 08/06 A3009 RMK A01 T00800060  RH  087%=      5-min Rain = 0
KCL2 102122Z 24009KT 08/06 A3009 RMK A01 T00800059  RH  087%=      5-min Rain = 0
KCL2 102123Z 24008KT 08/06 A3009 RMK A01 T00790060  RH  087%=      5-min Rain = 0
KCL2 102124Z 24009KT 08/06 A3008 RMK A01 T00800061  RH  088%=      5-min Rain = 0
KCL2 102125Z 24011KT 08/06 A3008 RMK A01 T00800060  RH  087%=      5-min Rain = 0
KCL2 102126Z 24011KT 08/06 A3008 RMK A01 T00800060  RH  087%=      5-min Rain = 0
KCL2 102127Z 23011KT 08/06 A3008 RMK A01 T00790059  RH  087%=      5-min Rain = 0
KCL2 102128Z 24009KT 08/06 A3008 RMK A01 T00790060  RH  088%=      5-min Rain = 0
KCL2 102129Z 25010KT 08/06 A3008 RMK A01 T00800061  RH  088%=      5-min Rain = 0
KCL2 102130Z 24010KT 08/06 A3008 RMK A01 T00800060  RH  087%=      5-min Rain = 0
KCL2 102131Z 25009KT 08/06 A3008 RMK A01 T00800061  RH  088%=      5-min Rain = 0
KCL2 102132Z 24012KT 08/06 A3008 RMK A01 T00790060  RH  088%=      5-min Rain = 0
KCL2 102133Z 24011KT 08/06 A3008 RMK A01 T00790060  RH  087%=      5-min Rain = 0
KCL2 102134Z 24010KT 08/06 A3008 RMK A01 T00790060  RH  088%=      5-min Rain = 0
KCL2 102135Z 24009KT 08/06 A3008 RMK A01 T00780060  RH  088%=      5-min Rain = 0
KCL2 102136Z 24010KT 08/06 A3008 RMK A01 T00780060  RH  088%=      5-min Rain = 0
KCL2 102137Z 25010KT 08/06 A3008 RMK A01 T00790060  RH  088%=      5-min Rain = 0
KCL2 102138Z 25009KT 08/06 A3008 RMK A01 T00790060  RH  088%=      5-min Rain = 0
KCL2 102139Z 25010KT 08/06 A3008 RMK A01 T00790060  RH  088%=      5-min Rain = 0
KCL2 102140Z 26012KT 08/06 A3008 RMK A01 T00790060  RH  088%=      5-min Rain = 0
KCL2 102141Z 26013KT 08/06 A3008 RMK A01 T00790060  RH  088%=      5-min Rain = 0
KCL2 102142Z 25013KT 08/06 A3008 RMK A01 T00780060  RH  088%=      5-min Rain = 0
KCL2 102143Z 26011KT 08/06 A3008 RMK A01 T00770060  RH  089%=      5-min Rain = 0
KCL2 102144Z 26011KT 08/06 A3008 RMK A01 T00770061  RH  089%=      5-min Rain = 0
KCL2 102145Z 26010KT 08/06 A3008 RMK A01 T00780061  RH  089%=      5-min Rain = 0
KCL2 102146Z 25009KT 08/06 A3008 RMK A01 T00780061  RH  089%=      5-min Rain = 0
KCL2 102147Z 25008KT 08/06 A3007 RMK A01 T00780061  RH  089%=      5-min Rain = 0
KCL2 102148Z 25010KT 08/06 A3007 RMK A01 T00780062  RH  089%=      5-min Rain = 0
KCL2 102149Z 25008KT 08/06 A3007 RMK A01 T00780061  RH  089%=      5-min Rain = 0
KCL2 102150Z 25007KT 08/06 A3007 RMK A01 T00790062  RH  089%=      5-min Rain = 0
KCL2 102151Z 24007KT 08/06 A3007 RMK A01 T00780061  RH  089%=      5-min Rain = 0
KCL2 102152Z 24009KT 08/06 A3007 RMK A01 T00790062  RH  089%=      5-min Rain = 0
KCL2 102153Z 22008KT 08/06 A3007 RMK A01 T00780061  RH  089%=      5-min Rain = 0
KCL2 102154Z 21009KT 08/06 A3007 RMK A01 T00780061  RH  089%=      5-min Rain = 0
KCL2 102155Z 21007KT 08/06 A3006 RMK A01 T00770061  RH  089%=      5-min Rain = 0
KCL2 102156Z 20007KT 08/06 A3006 RMK A01 T00770061  RH  090%=      5-min Rain = 0
KCL2 102157Z 19006KT 08/06 A3005 RMK A01 T00770060  RH  090%=      5-min Rain = 0
KCL2 102158Z 22004KT 08/06 A3005 RMK A01 T00760061  RH  090%=      5-min Rain = 0
KCL2 102159Z 22007KT 08/06 A3005 RMK A01 T00760062  RH  091%=      5-min Rain = 0
KCL2 102200Z 23007KT 08/06 A3005 RMK A01 T00770061  RH  090%=      5-min Rain = 0
KCL2 102201Z 23006KT 08/06 A3006 RMK A01 T00770061  RH  090%=      5-min Rain = 0
KCL2 102202Z 23006KT 08/06 A3006 RMK A01 T00760061  RH  090%=      5-min Rain = 0
KCL2 102203Z 23007KT 08/06 A3006 RMK A01 T00760061  RH  090%=      5-min Rain = 0
KCL2 102204Z 22006KT 08/06 A3006 RMK A01 T00760061  RH  090%=      5-min Rain = 0
KCL2 102205Z 22007KT 08/06 A3006 RMK A01 T00760061  RH  091%=      5-min Rain = 0
KCL2 102206Z 23008KT 08/06 A3007 RMK A01 T00760061  RH  090%=      5-min Rain = 0
KCL2 102207Z 22007KT 08/06 A3006 RMK A01 T00760061  RH  090%=      5-min Rain = 0
KCL2 102208Z 24008KT 08/06 A3006 RMK A01 T00760061  RH  090%=      5-min Rain = 0
KCL2 102209Z 23006KT 08/06 A3006 RMK A01 T00760061  RH  090%=      5-min Rain = 0
KCL2 102210Z 23006KT 08/06 A3006 RMK A01 T00750061  RH  090%=      5-min Rain = 0
KCL2 102211Z 23006KT 08/06 A3006 RMK A01 T00750061  RH  091%=      5-min Rain = 0
KCL2 102212Z 23006KT 08/06 A3006 RMK A01 T00750061  RH  091%=      5-min Rain = 0
KCL2 102213Z 24007KT 08/06 A3006 RMK A01 T00750061  RH  091%=      5-min Rain = 0
KCL2 102214Z 25006KT 08/06 A3006 RMK A01 T00750061  RH  091%=      5-min Rain = 0
KCL2 102215Z 26004KT 08/06 A3005 RMK A01 T00750061  RH  091%=      5-min Rain = 0
KCL2 102216Z 28003KT 08/06 A3005 RMK A01 T00750061  RH  091%=      5-min Rain = 0
KCL2 102217Z 27004KT 08/06 A3004 RMK A01 T00750061  RH  091%=      5-min Rain = 0
KCL2 102218Z 25005KT 08/06 A3004 RMK A01 T00750061  RH  091%=      5-min Rain = 0
KCL2 102219Z 25007KT 08/06 A3005 RMK A01 T00750061  RH  091%=      5-min Rain = 0
KCL2 102220Z 25007KT 08/06 A3005 RMK A01 T00750061  RH  091%=      5-min Rain = 0
KCL2 102221Z 24006KT 08/06 A3005 RMK A01 T00750062  RH  091%=      5-min Rain = 0
KCL2 102222Z 24005KT 08/06 A3004 RMK A01 T00750061  RH  091%=      5-min Rain = 0
KCL2 102223Z 25003KT 08/06 A3004 RMK A01 T00750061  RH  091%=      5-min Rain = 0
KCL2 102224Z 22002KT 07/06 A3004 RMK A01 T00740061  RH  091%=      5-min Rain = 0
KCL2 102225Z 21005KT 07/06 A3005 RMK A01 T00740061  RH  092%=      5-min Rain = 0
KCL2 102226Z 21007KT 07/06 A3005 RMK A01 T00740062  RH  092%=      5-min Rain = 0
KCL2 102227Z 20007KT 08/06 A3005 RMK A01 T00750062  RH  092%=      5-min Rain = 0
KCL2 102228Z 19006KT 08/06 A3005 RMK A01 T00750062  RH  092%=      5-min Rain = 0
KCL2 102229Z 17005KT 08/06 A3005 RMK A01 T00760063  RH  092%=      5-min Rain = 0
KCL2 102230Z 18006KT 08/06 A3005 RMK A01 T00750063  RH  092%=      5-min Rain = 0
KCL2 102231Z 19007KT 08/06 A3006 RMK A01 T00760063  RH  092%=      5-min Rain = 0
KCL2 102232Z 20008KT 08/06 A3006 RMK A01 T00760064  RH  092%=      5-min Rain = 0
KCL2 102233Z 19006KT 08/06 A3005 RMK A01 T00760063  RH  091%=      5-min Rain = 0
KCL2 102234Z 16005KT 08/06 A3005 RMK A01 T00770064  RH  092%=      5-min Rain = 0
KCL2 102235Z 16006KT 08/06 A3005 RMK A01 T00760064  RH  092%=      5-min Rain = 0
KCL2 102236Z 18005KT 08/06 A3005 RMK A01 T00760064  RH  092%=      5-min Rain = 0
KCL2 102237Z 16003KT 08/06 A3005 RMK A01 T00760064  RH  092%=      5-min Rain = 0
KCL2 102238Z 14004KT 08/06 A3004 RMK A01 T00760064  RH  092%=      5-min Rain = 0
KCL2 102239Z 15005KT 08/06 A3004 RMK A01 T00760064  RH  092%=      5-min Rain = 0
KCL2 102240Z 19006KT 08/06 A3004 RMK A01 T00760064  RH  093%=      5-min Rain = 0
KCL2 102241Z 20007KT 08/07 A3004 RMK A01 T00760065  RH  093%=      5-min Rain = 0
KCL2 102242Z 19005KT 08/07 A3004 RMK A01 T00760065  RH  093%=      5-min Rain = 0
KCL2 102243Z 16004KT 08/07 A3003 RMK A01 T00760065  RH  093%=      5-min Rain = 0
KCL2 102244Z 13004KT 08/07 A3002 RMK A01 T00760065  RH  093%=      5-min Rain = 0
KCL2 102245Z 14004KT 08/07 A3002 RMK A01 T00760066  RH  093%=      5-min Rain = 0
KCL2 102246Z 15003KT 08/07 A3002 RMK A01 T00750065  RH  093%=      5-min Rain = 0
KCL2 102247Z 14003KT 08/07 A3002 RMK A01 T00750065  RH  093%=      5-min Rain = 0
KCL2 102248Z 13004KT 08/07 A3002 RMK A01 T00750065  RH  093%=      5-min Rain = 0
KCL2 102249Z 15004KT 08/07 A3002 RMK A01 T00750065  RH  093%=      5-min Rain = 0
KCL2 102250Z 16005KT 08/07 A3002 RMK A01 T00750065  RH  093%=      5-min Rain = 0
KCL2 102251Z 14005KT 08/07 A3002 RMK A01 T00750065  RH  094%=      5-min Rain = 0
KCL2 102252Z 12006KT 08/07 A3001 RMK A01 T00750066  RH  094%=      5-min Rain = 0
KCL2 102253Z 11006KT 08/07 A3001 RMK A01 T00750066  RH  094%=      5-min Rain = 0
KCL2 102254Z 11005KT 08/07 A3001 RMK A01 T00750065  RH  094%=      5-min Rain = 0
KCL2 102255Z 12004KT 07/07 A3001 RMK A01 T00740065  RH  094%=      5-min Rain = 0
KCL2 102256Z 13006KT 07/07 A3001 RMK A01 T00740066  RH  094%=      5-min Rain = 0
KCL2 102257Z 13006KT 07/07 A3001 RMK A01 T00740066  RH  094%=      5-min Rain = 0
KCL2 102258Z 14005KT 07/07 A3002 RMK A01 T00740066  RH  094%=      5-min Rain = 0
KCL2 102259Z 14006KT 07/07 A3002 RMK A01 T00740066  RH  095%=      5-min Rain = 0
KCL2 102300Z 13006KT 07/07 A3002 RMK A01 T00740066  RH  095%=      5-min Rain = 0
KCL2 102301Z 11005KT 07/07 A3001 RMK A01 T00740066  RH  095%=      5-min Rain = 0
KCL2 102302Z 14005KT 07/07 A3002 RMK A01 T00740066  RH  095%=      5-min Rain = 0
KCL2 102303Z 17005KT 07/07 A3002 RMK A01 T00740066  RH  095%=      5-min Rain = 0
KCL2 102304Z 19005KT 07/07 A3003 RMK A01 T00740066  RH  095%=      5-min Rain = 0
KCL2 102305Z 16006KT 07/07 A3003 RMK A01 T00740066  RH  095%=      5-min Rain = 0
KCL2 102306Z 15006KT 07/07 A3003 RMK A01 T00740066  RH  095%=      5-min Rain = 0
KCL2 102307Z 15007KT 07/07 A3003 RMK A01 T00740066  RH  095%=      5-min Rain = 0
KCL2 102308Z 15006KT 07/07 A3003 RMK A01 T00740066  RH  095%=      5-min Rain = 0
KCL2 102309Z 14006KT 07/07 A3003 RMK A01 T00740066  RH  095%=      5-min Rain = 0
KCL2 102310Z 13005KT 07/07 A3002 RMK A01 T00740067  RH  095%=      5-min Rain = 0
KCL2 102311Z 14006KT 07/07 A3002 RMK A01 T00740067  RH  095%=      5-min Rain = 0
KCL2 102312Z 13005KT 07/07 A3003 RMK A01 T00740067  RH  095%=      5-min Rain = 0
KCL2 102313Z 14004KT 07/07 A3003 RMK A01 T00730066  RH  095%=      5-min Rain = 0
KCL2 102314Z 14006KT 07/07 A3003 RMK A01 T00730067  RH  095%=      5-min Rain = 0
KCL2 102315Z 14007KT 07/07 A3003 RMK A01 T00740067  RH  095%=      5-min Rain = 0
KCL2 102316Z 15006KT 07/07 A3003 RMK A01 T00730067  RH  096%=      5-min Rain = 0
KCL2 102317Z 16005KT 07/07 A3004 RMK A01 T00730067  RH  096%=      5-min Rain = 0
KCL2 102318Z 15005KT 07/07 A3003 RMK A01 T00730067  RH  096%=      5-min Rain = 0
KCL2 102319Z 15006KT 07/07 A3003 RMK A01 T00730067  RH  096%=      5-min Rain = 0
KCL2 102320Z 15006KT 07/07 A3004 RMK A01 T00740067  RH  096%=      5-min Rain = 0
KCL2 102321Z 15005KT 07/07 A3003 RMK A01 T00730067  RH  096%=      5-min Rain = 0
KCL2 102322Z 14006KT 07/07 A3003 RMK A01 T00730068  RH  096%=      5-min Rain = 0
KCL2 102323Z 15006KT 07/07 A3003 RMK A01 T00730068  RH  096%=      5-min Rain = 0.01
KCL2 102324Z 15006KT 07/07 A3004 RMK A01 T00730067  RH  096%=      5-min Rain = 0
KCL2 102325Z 16009KT 07/07 A3004 RMK A01 T00730068  RH  096%=      5-min Rain = 0
KCL2 102326Z 15008KT 07/07 A3003 RMK A01 T00730068  RH  096%=      5-min Rain = 0
KCL2 102327Z 15009KT 07/07 A3003 RMK A01 T00730068  RH  097%=      5-min Rain = 0
KCL2 102328Z 14008KT 07/07 A3003 RMK A01 T00730068  RH  097%=      5-min Rain = 0
KCL2 102329Z 14006KT 07/07 A3003 RMK A01 T00730068  RH  097%=      5-min Rain = 0
KCL2 102330Z 15006KT 07/07 A3003 RMK A01 T00730068  RH  097%=      5-min Rain = 0
KCL2 102331Z 14006KT 07/07 A3003 RMK A01 T00730068  RH  097%=      5-min Rain = 0
KCL2 102332Z 15006KT 07/07 A3003 RMK A01 T00730068  RH  097%=      5-min Rain = 0
KCL2 102333Z 16006KT 07/07 A3003 RMK A01 T00720068  RH  097%=      5-min Rain = 0
KCL2 102334Z 16006KT 07/07 A3003 RMK A01 T00730068  RH  097%=      5-min Rain = 0
KCL2 102335Z 15006KT 07/07 A3003 RMK A01 T00730068  RH  097%=      5-min Rain = 0
KCL2 102336Z 15006KT 07/07 A3003 RMK A01 T00730068  RH  097%=      5-min Rain = 0
KCL2 102337Z 16006KT 07/07 A3004 RMK A01 T00720068  RH  097%=      5-min Rain = 0
KCL2 102338Z 17007KT 07/07 A3004 RMK A01 T00730069  RH  097%=      5-min Rain = 0
KCL2 102339Z 18005KT 07/07 A3004 RMK A01 T00730069  RH  097%=      5-min Rain = 0
KCL2 102340Z 18008KT 07/07 A3004 RMK A01 T00720068  RH  097%=      5-min Rain = 0
KCL2 102341Z 16007KT 07/07 A3004 RMK A01 T00720068  RH  097%=      5-min Rain = 0
KCL2 102342Z 17006KT 07/07 A3004 RMK A01 T00720069  RH  097%=      5-min Rain = 0
KCL2 102343Z 16007KT 07/07 A3004 RMK A01 T00730069  RH  097%=      5-min Rain = 0
KCL2 102344Z 16006KT 07/07 A3004 RMK A01 T00730069  RH  097%=      5-min Rain = 0
KCL2 102345Z 15006KT 07/07 A3003 RMK A01 T00730069  RH  097%=      5-min Rain = 0
KCL2 102346Z 16007KT 07/07 A3003 RMK A01 T00730069  RH  097%=      5-min Rain = 0
KCL2 102347Z 15006KT 07/07 A3003 RMK A01 T00730069  RH  097%=      5-min Rain = 0
KCL2 102348Z 14007KT 07/07 A3003 RMK A01 T00730069  RH  097%=      5-min Rain = 0
KCL2 102349Z 15008KT 07/07 A3004 RMK A01 T00730069  RH  098%=      5-min Rain = 0
KCL2 102350Z 15007KT 07/07 A3004 RMK A01 T00730069  RH  098%=      5-min Rain = 0
KCL2 102351Z 15008KT 07/07 A3004 RMK A01 T00730069  RH  098%=      5-min Rain = 0
KCL2 102352Z 15006KT 07/07 A3004 RMK A01 T00730070  RH  098%=      5-min Rain = 0
KCL2 102353Z 15007KT 07/07 A3003 RMK A01 T00730070  RH  098%=      5-min Rain = 0
KCL2 102354Z 14007KT 07/07 A3003 RMK A01 T00730070  RH  098%=      5-min Rain = 0
KCL2 102355Z 15008KT 07/07 A3003 RMK A01 T00730070  RH  098%=      5-min Rain = 0
KCL2 102356Z 14008KT 07/07 A3003 RMK A01 T00730070  RH  098%=      5-min Rain = 0.01
KCL2 102357Z 14009KT 07/07 A3003 RMK A01 T00730070  RH  098%=      5-min Rain = 0
KCL2 102358Z 14008KT 07/07 A3003 RMK A01 T00730070  RH  098%=      5-min Rain = 0
KCL2 102359Z 13008KT 07/07 A3002 RMK A01 T00730070  RH  098%=      5-min Rain = 0
KCL2 110000Z 13007KT 07/07 A3002 RMK A01 T00730070  RH  098%=      5-min Rain = 0
KCL2 110001Z 12007KT 07/07 A3001 RMK A01 T00730071  RH  098%=      5-min Rain = 0
KCL2 110002Z 12009KT 07/07 A3001 RMK A01 T00740071  RH  098%=      5-min Rain = 0
KCL2 110003Z 12009KT 07/07 A3001 RMK A01 T00730071  RH  098%=      5-min Rain = 0
KCL2 110004Z 13009KT 07/07 A3001 RMK A01 T00730071  RH  098%=      5-min Rain = 0
KCL2 110005Z 12008KT 07/07 A30 RMK A01 T00730071  RH  098%=      5-min Rain = 0
KCL2 110006Z 12008KT 07/07 A30 RMK A01 T00730071  RH  099%=      5-min Rain = 0
KCL2 110007Z 11008KT 07/07 A30 RMK A01 T00730071  RH  099%=      5-min Rain = 0
KCL2 110008Z 12010KT 07/07 A30 RMK A01 T00730071  RH  099%=      5-min Rain = 0
KCL2 110009Z 12011KT 07/07 A30 RMK A01 T00730071  RH  099%=      5-min Rain = 0
KCL2 110010Z 12010KT 07/07 A30 RMK A01 T00730071  RH  099%=      5-min Rain = 0
KCL2 110011Z 14010KT 07/07 A30 RMK A01 T00730071  RH  099%=      5-min Rain = 0.01
KCL2 110012Z 13011KT 07/07 A30 RMK A01 T00720070  RH  099%=      5-min Rain = 0
KCL2 110013Z 14010KT 07/07 A30 RMK A01 T00720070  RH  099%=      5-min Rain = 0
KCL2 110014Z 13010KT 07/07 A3001 RMK A01 T00720070  RH  099%=      5-min Rain = 0
KCL2 110015Z 13009KT 07/07 A3001 RMK A01 T00710070  RH  099%=      5-min Rain = 0
KCL2 110016Z 14009KT 07/07 A3001 RMK A01 T00710070  RH  099%=      5-min Rain = 0
KCL2 110017Z 13008KT 07/07 A3001 RMK A01 T00710070  RH  099%=      5-min Rain = 0
KCL2 110018Z 12011KT 07/07 A3001 RMK A01 T00710069  RH  099%=      5-min Rain = 0
KCL2 110019Z 12010KT 07/07 A30 RMK A01 T00710069  RH  099%=      5-min Rain = 0
KCL2 110020Z 12011KT 07/07 A30 RMK A01 T00700069  RH  099%=      5-min Rain = 0
KCL2 110021Z 13010KT 07/07 A3001 RMK A01 T00700068  RH  099%=      5-min Rain = 0
KCL2 110022Z 13010KT 07/07 A3001 RMK A01 T00700068  RH  099%=      5-min Rain = 0
KCL2 110023Z 13010KT 07/07 A3001 RMK A01 T00690068  RH  099%=      5-min Rain = 0
KCL2 110024Z 14011KT 07/07 A3001 RMK A01 T00690068  RH  099%=      5-min Rain = 0
KCL2 110025Z 13014KT 07/07 A3001 RMK A01 T00690068  RH  099%=      5-min Rain = 0
KCL2 110026Z 14013KT 07/07 A3001 RMK A01 T00690068  RH  099%=      5-min Rain = 0
KCL2 110027Z 15011KT 07/07 A3001 RMK A01 T00680068  RH  099%=      5-min Rain = 0
KCL2 110028Z 15010KT 07/07 A3002 RMK A01 T00680067  RH  099%=      5-min Rain = 0
KCL2 110029Z 14010KT 07/07 A3002 RMK A01 T00680067  RH  099%=      5-min Rain = 0
KCL2 110030Z 14011KT 07/07 A3002 RMK A01 T00680067  RH  099%=      5-min Rain = 0
KCL2 110031Z 14014KT 07/07 A3002 RMK A01 T00680068  RH  100%=      5-min Rain = 0
KCL2 110032Z 15013KT 07/07 A3002 RMK A01 T00680068  RH  100%=      5-min Rain = 0
KCL2 110033Z 15014KT 07/07 A3002 RMK A01 T00680068  RH  100%=      5-min Rain = 0
KCL2 110034Z 15014KT 07/07 A3002 RMK A01 T00680067  RH  100%=      5-min Rain = 0
KCL2 110035Z 15013KT 07/07 A3002 RMK A01 T00680067  RH  100%=      5-min Rain = 0
KCL2 110036Z 14011KT 07/07 A3002 RMK A01 T00680067  RH  100%=      5-min Rain = 0
KCL2 110037Z 15013KT 07/07 A3001 RMK A01 T00680067  RH  100%=      5-min Rain = 0
KCL2 110038Z 15014KT 07/07 A3001 RMK A01 T00680067  RH  100%=      5-min Rain = 0
KCL2 110039Z 14016KT 07/07 A3001 RMK A01 T00680067  RH  100%=      5-min Rain = 0
KCL2 110040Z 14015KT 07/07 A30 RMK A01 T00680067  RH  100%=      5-min Rain = 0
KCL2 110041Z 15015KT 07/07 A30 RMK A01 T00670067  RH  100%=      5-min Rain = 0
KCL2 110042Z 14015KT 07/07 A30 RMK A01 T00670067  RH  100%=      5-min Rain = 0
KCL2 110043Z 15012KT 07/07 A30 RMK A01 T00670067  RH  100%=      5-min Rain = 0
KCL2 110044Z 14012KT 07/07 A30 RMK A01 T00670067  RH  100%=      5-min Rain = 0
KCL2 110045Z 15013G19KT 07/07 A30 RMK A01 T00670067  RH  100%=      5-min Rain = 0
KCL2 110046Z 15014G19KT 07/07 A30 RMK A01 T00670067  RH  100%=      5-min Rain = 0
KCL2 110047Z 15014G19KT 07/07 A3001 RMK A01 T00670067  RH  100%=      5-min Rain = 0
KCL2 110048Z 15013KT 07/07 A3001 RMK A01 T00670067  RH  100%=      5-min Rain = 0
KCL2 110049Z 15013KT 07/07 A3001 RMK A01 T00670067  RH  100%=      5-min Rain = 0
KCL2 110050Z 15013KT 07/07 A3001 RMK A01 T00670067  RH  100%=      5-min Rain = 0
KCL2 110051Z 15013KT 07/07 A3001 RMK A01 T00670067  RH  100%=      5-min Rain = 0
KCL2 110052Z 15013KT 07/07 A3001 RMK A01 T00680068  RH  100%=      5-min Rain = 0
KCL2 110053Z 14014KT 07/07 A3001 RMK A01 T00680068  RH  100%=      5-min Rain = 0
KCL2 110054Z 14012G17KT 07/07 A3001 RMK A01 T00680068  RH  100%=      5-min Rain = 0
KCL2 110055Z 15010KT 07/07 A3001 RMK A01 T00680068  RH  100%=      5-min Rain = 0
KCL2 110056Z 15012KT 07/07 A3001 RMK A01 T00680068  RH  100%=      5-min Rain = 0
KCL2 110057Z 15010KT 07/07 A3001 RMK A01 T00680068  RH  100%=      5-min Rain = 0
KCL2 110058Z 14011KT 07/07 A3001 RMK A01 T00680068  RH  100%=      5-min Rain = 0
KCL2 110059Z 14011KT 07/07 A3001 RMK A01 T00680068  RH  100%=      5-min Rain = 0
KCL2 110100Z 15011KT 07/07 A3001 RMK A01 T00680068  RH  100%=      5-min Rain = 0
KCL2 110101Z 14010G15KT 07/07 A3001 RMK A01 T00680068  RH  100%=      5-min Rain = 0
KCL2 110102Z 15013KT 07/07 A30 RMK A01 T00680068  RH  100%=      5-min Rain = 0
KCL2 110103Z 14013KT 07/07 A30 RMK A01 T00680068  RH  100%=      5-min Rain = 0
KCL2 110104Z 15013KT 07/07 A3001 RMK A01 T00680068  RH  100%=      5-min Rain = 0
KCL2 110105Z 14011KT 07/07 A3001 RMK A01 T00680068  RH  100%=      5-min Rain = 0
KCL2 110106Z 15013KT 07/07 A3001 RMK A01 T00680068  RH  100%=      5-min Rain = 0
KCL2 110107Z 15013KT 07/07 A3001 RMK A01 T00680068  RH  100%=      5-min Rain = 0
KCL2 110108Z 14011KT 07/07 A3001 RMK A01 T00680068  RH  100%=      5-min Rain = 0
KCL2 110109Z 15011KT 07/07 A3001 RMK A01 T00680068  RH  100%=      5-min Rain = 0
KCL2 110110Z 15011KT 07/07 A3001 RMK A01 T00680068  RH  100%=      5-min Rain = 0
KCL2 110111Z 15014KT 07/07 A3001 RMK A01 T00680068  RH  100%=      5-min Rain = 0
KCL2 110112Z 14014KT 07/07 A3001 RMK A01 T00670067  RH  100%=      5-min Rain = 0
KCL2 110113Z 15013KT 07/07 A3001 RMK A01 T00680068  RH  100%=      5-min Rain = 0
KCL2 110114Z 15014KT 07/07 A3001 RMK A01 T00670067  RH  100%=      5-min Rain = 0
KCL2 110115Z 15015KT 07/07 A3001 RMK A01 T00670067  RH  100%=      5-min Rain = 0
KCL2 110116Z 15012KT 07/07 A3001 RMK A01 T00680068  RH  100%=      5-min Rain = 0
KCL2 110117Z 15014KT 07/07 A3001 RMK A01 T00670067  RH  100%=      5-min Rain = 0
KCL2 110118Z 15013KT 07/07 A3001 RMK A01 T00670067  RH  100%=      5-min Rain = 0
KCL2 110119Z 15013KT 07/07 A3001 RMK A01 T00670067  RH  100%=      5-min Rain = 0
KCL2 110120Z 16012KT 07/07 A3001 RMK A01 T00670067  RH  100%=      5-min Rain = 0
KCL2 110121Z 16014KT 07/07 A3002 RMK A01 T00670067  RH  100%=      5-min Rain = 0
KCL2 110122Z 16014KT 07/07 A3002 RMK A01 T00670067  RH  100%=      5-min Rain = 0
KCL2 110123Z 16013KT 07/07 A3002 RMK A01 T00670067  RH  100%=      5-min Rain = 0
KCL2 110124Z 16011KT 07/07 A3002 RMK A01 T00670067  RH  100%=      5-min Rain = 0
KCL2 110125Z 16012KT 07/07 A3002 RMK A01 T00680068  RH  100%=      5-min Rain = 0
KCL2 110126Z 16012KT 07/07 A3002 RMK A01 T00670067  RH  100%=      5-min Rain = 0
KCL2 110127Z 16012KT 07/07 A3003 RMK A01 T00670067  RH  100%=      5-min Rain = 0
KCL2 110128Z 16011KT 07/07 A3002 RMK A01 T00670067  RH  100%=      5-min Rain = 0
KCL2 110129Z 16010KT 07/07 A3003 RMK A01 T00670067  RH  100%=      5-min Rain = 0
KCL2 110130Z 16010KT 07/07 A3003 RMK A01 T00670067  RH  100%=      5-min Rain = 0
KCL2 110131Z 16010KT 07/07 A3003 RMK A01 T00670067  RH  100%=      5-min Rain = 0
KCL2 110132Z 15010KT 07/07 A3002 RMK A01 T00670067  RH  100%=      5-min Rain = 0
KCL2 110133Z 15008KT 07/07 A3002 RMK A01 T00670067  RH  100%=      5-min Rain = 0
KCL2 110134Z 15010KT 07/07 A3003 RMK A01 T00670067  RH  100%=      5-min Rain = 0
KCL2 110135Z 16010G15KT 07/07 A3003 RMK A01 T00670067  RH  100%=      5-min Rain = 0.01
KCL2 110136Z 16010KT 07/07 A3003 RMK A01 T00670067  RH  100%=      5-min Rain = 0
KCL2 110137Z 15011KT 07/07 A3003 RMK A01 T00670067  RH  100%=      5-min Rain = 0
KCL2 110138Z 15012KT 07/07 A3003 RMK A01 T00670067  RH  100%=      5-min Rain = 0
KCL2 110139Z 15010KT 07/07 A3003 RMK A01 T00670067  RH  100%=      5-min Rain = 0
KCL2 110140Z 16012KT 07/07 A3003 RMK A01 T00670067  RH  100%=      5-min Rain = 0
KCL2 110141Z 16013KT 07/07 A3003 RMK A01 T00670067  RH  100%=      5-min Rain = 0
KCL2 110142Z 15012KT 07/07 A3003 RMK A01 T00670067  RH  100%=      5-min Rain = 0
KCL2 110143Z 15012KT 07/07 A3003 RMK A01 T00670067  RH  100%=      5-min Rain = 0
KCL2 110144Z 15011KT 07/07 A3003 RMK A01 T00670067  RH  100%=      5-min Rain = 0
KCL2 110145Z 16011KT 07/07 A3003 RMK A01 T00670067  RH  100%=      5-min Rain = 0
KCL2 110146Z 15010KT 07/07 A3003 RMK A01 T00670067  RH  100%=      5-min Rain = 0
KCL2 110147Z 15013G19KT 07/07 A3002 RMK A01 T00670067  RH  100%=      5-min Rain = 0
KCL2 110148Z 16012KT 07/07 A3002 RMK A01 T00670067  RH  100%=      5-min Rain = 0
KCL2 110149Z 15008KT 07/07 A3002 RMK A01 T00670067  RH  100%=      5-min Rain = 0
KCL2 110150Z 16011KT 07/07 A3002 RMK A01 T00670067  RH  100%=      5-min Rain = 0
KCL2 110151Z 15011KT 07/07 A3002 RMK A01 T00670067  RH  100%=      5-min Rain = 0
KCL2 110152Z 15011KT 07/07 A3002 RMK A01 T00670067  RH  100%=      5-min Rain = 0
KCL2 110153Z 15011G16KT 07/07 A3002 RMK A01 T00670067  RH  100%=      5-min Rain = 0
KCL2 110154Z 15010KT 07/07 A3002 RMK A01 T00670067  RH  100%=      5-min Rain = 0
KCL2 110155Z 15010KT 07/07 A3002 RMK A01 T00670067  RH  100%=      5-min Rain = 0
KCL2 110156Z 16010G15KT 07/07 A3002 RMK A01 T00670067  RH  100%=      5-min Rain = 0
KCL2 110157Z 16011KT 07/07 A3002 RMK A01 T00670067  RH  100%=      5-min Rain = 0
KCL2 110158Z 16011KT 07/07 A3002 RMK A01 T00670067  RH  100%=      5-min Rain = 0
KCL2 110159Z 16012KT 07/07 A3002 RMK A01 T00670067  RH  100%=      5-min Rain = 0
KCL2 110200Z 16011KT 07/07 A3003 RMK A01 T00670067  RH  100%=      5-min Rain = 0
KCL2 110201Z 16008KT 07/07 A3003 RMK A01 T00670067  RH  100%=      5-min Rain = 0.01
KCL2 110202Z 17009KT 07/07 A3003 RMK A01 T00670067  RH  100%=      5-min Rain = 0
KCL2 110203Z 16007KT 07/07 A3003 RMK A01 T00680068  RH  100%=      5-min Rain = 0
KCL2 110204Z 16011KT 07/07 A3003 RMK A01 T00670067  RH  100%=      5-min Rain = 0
KCL2 110205Z 16009KT 07/07 A3003 RMK A01 T00670067  RH  100%=      5-min Rain = 0
KCL2 110206Z 16011KT 07/07 A3003 RMK A01 T00680068  RH  100%=      5-min Rain = 0
KCL2 110207Z 16011KT 07/07 A3003 RMK A01 T00680068  RH  100%=      5-min Rain = 0
KCL2 110208Z 17010KT 07/07 A3003 RMK A01 T00680068  RH  100%=      5-min Rain = 0
KCL2 110209Z 16009KT 07/07 A3003 RMK A01 T00680068  RH  100%=      5-min Rain = 0
KCL2 110210Z 17009KT 07/07 A3003 RMK A01 T00680068  RH  100%=      5-min Rain = 0
KCL2 110211Z 16009G14KT 07/07 A3003 RMK A01 T00680068  RH  100%=      5-min Rain = 0
KCL2 110212Z 16012KT 07/07 A3003 RMK A01 T00680068  RH  100%=      5-min Rain = 0
KCL2 110213Z 17009KT 07/07 A3003 RMK A01 T00680068  RH  100%=      5-min Rain = 0
KCL2 110214Z 17012KT 07/07 A3003 RMK A01 T00680068  RH  100%=      5-min Rain = 0
KCL2 110215Z 16012KT 07/07 A3003 RMK A01 T00680068  RH  100%=      5-min Rain = 0
KCL2 110216Z 16011KT 07/07 A3003 RMK A01 T00680068  RH  100%=      5-min Rain = 0
KCL2 110217Z 16010KT 07/07 A3003 RMK A01 T00680068  RH  100%=      5-min Rain = 0
KCL2 110218Z 17012KT 07/07 A3003 RMK A01 T00690069  RH  100%=      5-min Rain = 0
KCL2 110219Z 16013KT 07/07 A3003 RMK A01 T00680068  RH  100%=      5-min Rain = 0
KCL2 110220Z 16013KT 07/07 A3003 RMK A01 T00680068  RH  100%=      5-min Rain = 0
KCL2 110221Z 16014G19KT 07/07 A3003 RMK A01 T00680068  RH  100%=      5-min Rain = 0
KCL2 110222Z 16013KT 07/07 A3003 RMK A01 T00680068  RH  100%=      5-min Rain = 0
KCL2 110223Z 16013KT 07/07 A3002 RMK A01 T00680068  RH  100%=      5-min Rain = 0
KCL2 110224Z 16014KT 07/07 A3002 RMK A01 T00680068  RH  100%=      5-min Rain = 0
KCL2 110225Z 16015KT 07/07 A3002 RMK A01 T00680068  RH  100%=      5-min Rain = 0
KCL2 110226Z 16016KT 07/07 A3002 RMK A01 T00680068  RH  100%=      5-min Rain = 0
KCL2 110227Z 16013KT 07/07 A3002 RMK A01 T00680068  RH  100%=      5-min Rain = 0.01
KCL2 110228Z 16012KT 07/07 A3002 RMK A01 T00680068  RH  100%=      5-min Rain = 0
KCL2 110229Z 16015KT 07/07 A3002 RMK A01 T00680068  RH  100%=      5-min Rain = 0
KCL2 110230Z 16016KT 07/07 A3002 RMK A01 T00690069  RH  100%=      5-min Rain = 0
KCL2 110231Z 16013KT 07/07 A3002 RMK A01 T00680068  RH  100%=      5-min Rain = 0
KCL2 110232Z 16014KT 07/07 A3002 RMK A01 T00680068  RH  100%=      5-min Rain = 0
KCL2 110233Z 16013KT 07/07 A3002 RMK A01 T00680068  RH  100%=      5-min Rain = 0
KCL2 110234Z 16014KT 07/07 A3002 RMK A01 T00680068  RH  100%=      5-min Rain = 0
KCL2 110235Z 16014G19KT 07/07 A3002 RMK A01 T00680068  RH  100%=      5-min Rain = 0
KCL2 110236Z 16013G18KT 07/07 A3002 RMK A01 T00680068  RH  100%=      5-min Rain = 0
KCL2 110237Z 15015KT 07/07 A3002 RMK A01 T00690068  RH  100%=      5-min Rain = 0
KCL2 110238Z 15013KT 07/07 A3001 RMK A01 T00680068  RH  100%=      5-min Rain = 0
KCL2 110239Z 16015G20KT 07/07 A3001 RMK A01 T00680068  RH  100%=      5-min Rain = 0
KCL2 110240Z 16013KT 07/07 A3001 RMK A01 T00680068  RH  100%=      5-min Rain = 0
KCL2 110241Z 15011KT 07/07 A3001 RMK A01 T00680068  RH  100%=      5-min Rain = 0
KCL2 110242Z 15014KT 07/07 A3001 RMK A01 T00690068  RH  100%=      5-min Rain = 0
KCL2 110243Z 15012KT 07/07 A3001 RMK A01 T00690068  RH  100%=      5-min Rain = 0
KCL2 110244Z 15013KT 07/07 A3001 RMK A01 T00690069  RH  100%=      5-min Rain = 0
KCL2 110245Z 16014KT 07/07 A3001 RMK A01 T00690069  RH  100%=      5-min Rain = 0
KCL2 110246Z 15012KT 07/07 A3001 RMK A01 T00690069  RH  100%=      5-min Rain = 0.01
KCL2 110247Z 15014KT 07/07 A3001 RMK A01 T00690069  RH  100%=      5-min Rain = 0
KCL2 110248Z 15015KT 07/07 A3001 RMK A01 T00690069  RH  100%=      5-min Rain = 0
KCL2 110249Z 15014KT 07/07 A3001 RMK A01 T00690069  RH  100%=      5-min Rain = 0
KCL2 110250Z 16013KT 07/07 A30 RMK A01 T00690069  RH  100%=      5-min Rain = 0
KCL2 110251Z 15012KT 07/07 A30 RMK A01 T00690069  RH  100%=      5-min Rain = 0
KCL2 110252Z 16012KT 07/07 A30 RMK A01 T00690069  RH  100%=      5-min Rain = 0
KCL2 110253Z 16012KT 07/07 A3001 RMK A01 T00690069  RH  100%=      5-min Rain = 0
KCL2 110254Z 15012KT 07/07 A30 RMK A01 T00690069  RH  100%=      5-min Rain = 0
KCL2 110255Z 15012KT 07/07 A30 RMK A01 T00690069  RH  100%=      5-min Rain = 0
KCL2 110256Z 16012KT 07/07 A30 RMK A01 T00690069  RH  100%=      5-min Rain = 0
KCL2 110257Z 16012KT 07/07 A30 RMK A01 T00690069  RH  100%=      5-min Rain = 0
KCL2 110258Z 16012KT 07/07 A3001 RMK A01 T00690069  RH  100%=      5-min Rain = 0
KCL2 110259Z 15012KT 07/07 A3001 RMK A01 T00690069  RH  100%=      5-min Rain = 0
KCL2 110300Z 16013KT 07/07 A30 RMK A01 T00690069  RH  100%=      5-min Rain = 0
KCL2 110301Z 15011KT 07/07 A3001 RMK A01 T00690069  RH  100%=      5-min Rain = 0
KCL2 110302Z 16013KT 07/07 A30 RMK A01 T00690069  RH  100%=      5-min Rain = 0
KCL2 110303Z 16012G17KT 07/07 A30 RMK A01 T00690069  RH  100%=      5-min Rain = 0
KCL2 110304Z 16013G18KT 07/07 A30 RMK A01 T00690069  RH  100%=      5-min Rain = 0
KCL2 110305Z 16011KT 07/07 A30 RMK A01 T00690069  RH  100%=      5-min Rain = 0
KCL2 110306Z 16012KT 07/07 A30 RMK A01 T00690069  RH  100%=      5-min Rain = 0
KCL2 110307Z 16014KT 07/07 A30 RMK A01 T00690069  RH  100%=      5-min Rain = 0
KCL2 110308Z 16013KT 07/07 A30 RMK A01 T00690069  RH  100%=      5-min Rain = 0
KCL2 110309Z 16016KT 07/07 A30 RMK A01 T00690069  RH  100%=      5-min Rain = 0
KCL2 110310Z 16014KT 07/07 A3001 RMK A01 T00690069  RH  100%=      5-min Rain = 0
KCL2 110311Z 16013KT 07/07 A3001 RMK A01 T00690069  RH  100%=      5-min Rain = 0
KCL2 110312Z 16016KT 07/07 A3001 RMK A01 T00690069  RH  100%=      5-min Rain = 0
KCL2 110313Z 16014KT 07/07 A3001 RMK A01 T00690069  RH  100%=      5-min Rain = 0
KCL2 110314Z 16015KT 07/07 A3001 RMK A01 T00690069  RH  100%=      5-min Rain = 0
KCL2 110315Z 16015KT 07/07 A3001 RMK A01 T00690069  RH  100%=      5-min Rain = 0
KCL2 110316Z 16013KT 07/07 A3001 RMK A01 T00690069  RH  100%=      5-min Rain = 0
KCL2 110317Z 16013G18KT 07/07 A3001 RMK A01 T00690069  RH  100%=      5-min Rain = 0
KCL2 110318Z 16014KT 07/07 A3001 RMK A01 T00690069  RH  100%=      5-min Rain = 0
KCL2 110319Z 16012KT 07/07 A3001 RMK A01 T00700069  RH  100%=      5-min Rain = 0
KCL2 110320Z 16013G18KT 07/07 A3001 RMK A01 T00690069  RH  100%=      5-min Rain = 0
KCL2 110321Z 16013KT 07/07 A30 RMK A01 T00690069  RH  100%=      5-min Rain = 0
KCL2 110322Z 15014KT 07/07 A30 RMK A01 T00690069  RH  100%=      5-min Rain = 0
KCL2 110323Z 15014KT 07/07 A30 RMK A01 T00690069  RH  100%=      5-min Rain = 0
KCL2 110324Z 15014KT 07/07 A30 RMK A01 T00690069  RH  100%=      5-min Rain = 0
KCL2 110325Z 15013KT 07/07 A30 RMK A01 T00690069  RH  100%=      5-min Rain = 0
KCL2 110326Z 15015KT 07/07 A30 RMK A01 T00690069  RH  100%=      5-min Rain = 0
KCL2 110327Z 15015G20KT 07/07 A30 RMK A01 T00690069  RH  100%=      5-min Rain = 0
KCL2 110328Z 15013KT 07/07 A30 RMK A01 T00690069  RH  100%=      5-min Rain = 0
KCL2 110329Z 15013KT 07/07 A2999 RMK A01 T00690069  RH  100%=      5-min Rain = 0
KCL2 110330Z 15012KT 07/07 A30 RMK A01 T00690069  RH  100%=      5-min Rain = 0
KCL2 110331Z 15013G20KT 07/07 A30 RMK A01 T00690069  RH  100%=      5-min Rain = 0
KCL2 110332Z 16015KT 07/07 A2999 RMK A01 T00690069  RH  100%=      5-min Rain = 0
KCL2 110333Z 15014KT 07/07 A2999 RMK A01 T00690069  RH  100%=      5-min Rain = 0
KCL2 110334Z 16015KT 07/07 A2999 RMK A01 T00690069  RH  100%=      5-min Rain = 0
KCL2 110335Z 15013KT 07/07 A2999 RMK A01 T00690069  RH  100%=      5-min Rain = 0
KCL2 110336Z 15013KT 07/07 A2999 RMK A01 T00690069  RH  100%=      5-min Rain = 0
KCL2 110337Z 15014KT 07/07 A2999 RMK A01 T00690069  RH  100%=      5-min Rain = 0
KCL2 110338Z 15016KT 07/07 A2998 RMK A01 T00690069  RH  100%=      5-min Rain = 0
KCL2 110339Z 15013KT 07/07 A2998 RMK A01 T00700069  RH  100%=      5-min Rain = 0
KCL2 110340Z 15017KT 07/07 A2998 RMK A01 T00700069  RH  100%=      5-min Rain = 0
KCL2 110341Z 15015KT 07/07 A2998 RMK A01 T00700070  RH  100%=      5-min Rain = 0
KCL2 110342Z 15016KT 07/07 A2998 RMK A01 T00700070  RH  100%=      5-min Rain = 0
KCL2 110343Z 15015KT 07/07 A2999 RMK A01 T00700069  RH  100%=      5-min Rain = 0
KCL2 110344Z 16018G23KT 07/07 A2999 RMK A01 T00700070  RH  100%=      5-min Rain = 0
KCL2 110345Z 16014KT 07/07 A2999 RMK A01 T00700070  RH  100%=      5-min Rain = 0.01
KCL2 110346Z 15014KT 07/07 A2999 RMK A01 T00700070  RH  100%=      5-min Rain = 0
KCL2 110347Z 16014G20KT 07/07 A2999 RMK A01 T00700070  RH  100%=      5-min Rain = 0
KCL2 110348Z 16015KT 07/07 A2999 RMK A01 T00700070  RH  100%=      5-min Rain = 0
KCL2 110349Z 16012KT 07/07 A2999 RMK A01 T00700070  RH  100%=      5-min Rain = 0
KCL2 110350Z 16014KT 07/07 A2999 RMK A01 T00710070  RH  100%=      5-min Rain = 0
KCL2 110351Z 16014KT 07/07 A2999 RMK A01 T00700070  RH  100%=      5-min Rain = 0
KCL2 110352Z 15013KT 07/07 A2999 RMK A01 T00710070  RH  100%=      5-min Rain = 0
KCL2 110353Z 16015KT 07/07 A2999 RMK A01 T00710070  RH  100%=      5-min Rain = 0
KCL2 110354Z 15015KT 07/07 A2999 RMK A01 T00710070  RH  100%=      5-min Rain = 0
KCL2 110355Z 15015KT 07/07 A2999 RMK A01 T00710070  RH  100%=      5-min Rain = 0
KCL2 110356Z 16015KT 07/07 A2998 RMK A01 T00710070  RH  100%=      5-min Rain = 0
KCL2 110357Z 15013KT 07/07 A2998 RMK A01 T00710071  RH  100%=      5-min Rain = 0
KCL2 110358Z 15015KT 07/07 A2998 RMK A01 T00710071  RH  100%=      5-min Rain = 0
KCL2 110359Z 15014KT 07/07 A2998 RMK A01 T00710071  RH  100%=      5-min Rain = 0
KCL2 110400Z 15012G17KT 07/07 A2998 RMK A01 T00720071  RH  100%=      5-min Rain = 0
KCL2 110401Z 15013KT 07/07 A2998 RMK A01 T00710071  RH  100%=      5-min Rain = 0
KCL2 110402Z 15014KT 07/07 A2998 RMK A01 T00720071  RH  100%=      5-min Rain = 0
KCL2 110403Z 15014KT 07/07 A2998 RMK A01 T00720072  RH  100%=      5-min Rain = 0
KCL2 110404Z 15014KT 07/07 A2997 RMK A01 T00720072  RH  100%=      5-min Rain = 0
KCL2 110405Z 15013KT 07/07 A2997 RMK A01 T00720072  RH  100%=      5-min Rain = 0
KCL2 110406Z 15013G18KT 07/07 A2998 RMK A01 T00720072  RH  100%=      5-min Rain = 0
KCL2 110407Z 16013KT 07/07 A2998 RMK A01 T00730072  RH  100%=      5-min Rain = 0
KCL2 110408Z 16014KT 07/07 A2998 RMK A01 T00730073  RH  100%=      5-min Rain = 0
KCL2 110409Z 16015KT 07/07 A2998 RMK A01 T00730073  RH  100%=      5-min Rain = 0
KCL2 110410Z 16014KT 07/07 A2998 RMK A01 T00730073  RH  100%=      5-min Rain = 0
KCL2 110411Z 14015G20KT 07/07 A2997 RMK A01 T00730073  RH  100%=      5-min Rain = 0
KCL2 110412Z 14015KT 07/07 A2997 RMK A01 T00730073  RH  100%=      5-min Rain = 0
KCL2 110413Z 15015KT 07/07 A2997 RMK A01 T00740073  RH  100%=      5-min Rain = 0
KCL2 110414Z 16011KT 07/07 A2997 RMK A01 T00740073  RH  100%=      5-min Rain = 0
KCL2 110415Z 17011KT 07/07 A2998 RMK A01 T00740074  RH  100%=      5-min Rain = 0
KCL2 110416Z 18011KT 07/07 A2998 RMK A01 T00740074  RH  100%=      5-min Rain = 0
KCL2 110417Z 16013KT 07/07 A2997 RMK A01 T00740073  RH  100%=      5-min Rain = 0
KCL2 110418Z 15015KT 07/07 A2997 RMK A01 T00740073  RH  100%=      5-min Rain = 0
KCL2 110419Z 14015G20KT 07/07 A2997 RMK A01 T00740074  RH  100%=      5-min Rain = 0
KCL2 110420Z 14014KT 07/07 A2997 RMK A01 T00740073  RH  100%=      5-min Rain = 0
KCL2 110421Z 14013KT 07/07 A2997 RMK A01 T00740073  RH  100%=      5-min Rain = 0
KCL2 110422Z 15015KT 07/07 A2997 RMK A01 T00740073  RH  100%=      5-min Rain = 0
KCL2 110423Z 15014G19KT 07/07 A2997 RMK A01 T00740073  RH  100%=      5-min Rain = 0
KCL2 110424Z 16015KT 07/07 A2997 RMK A01 T00740073  RH  100%=      5-min Rain = 0
KCL2 110425Z 15015KT 07/07 A2997 RMK A01 T00740073  RH  100%=      5-min Rain = 0
KCL2 110426Z 15014KT 07/07 A2997 RMK A01 T00730073  RH  100%=      5-min Rain = 0
KCL2 110427Z 16014KT 07/07 A2997 RMK A01 T00730073  RH  100%=      5-min Rain = 0
KCL2 110428Z 15014KT 07/07 A2997 RMK A01 T00730073  RH  100%=      5-min Rain = 0
KCL2 110429Z 15015KT 07/07 A2997 RMK A01 T00730073  RH  100%=      5-min Rain = 0
KCL2 110430Z 15013KT 07/07 A2997 RMK A01 T00730073  RH  100%=      5-min Rain = 0
KCL2 110431Z 15014KT 07/07 A2997 RMK A01 T00730072  RH  100%=      5-min Rain = 0
KCL2 110432Z 14013KT 07/07 A2997 RMK A01 T00730073  RH  100%=      5-min Rain = 0
KCL2 110433Z 15015KT 07/07 A2996 RMK A01 T00730072  RH  100%=      5-min Rain = 0
KCL2 110434Z 15015KT 07/07 A2996 RMK A01 T00730072  RH  100%=      5-min Rain = 0
KCL2 110435Z 15015KT 07/07 A2996 RMK A01 T00730072  RH  100%=      5-min Rain = 0
KCL2 110436Z 15014KT 07/07 A2996 RMK A01 T00730072  RH  100%=      5-min Rain = 0
KCL2 110437Z 14013KT 07/07 A2996 RMK A01 T00730072  RH  100%=      5-min Rain = 0
KCL2 110438Z 15014KT 07/07 A2996 RMK A01 T00730073  RH  100%=      5-min Rain = 0
KCL2 110439Z 15014KT 07/07 A2996 RMK A01 T00730073  RH  100%=      5-min Rain = 0
KCL2 110440Z 15013KT 07/07 A2996 RMK A01 T00730072  RH  100%=      5-min Rain = 0
KCL2 110441Z 15013KT 07/07 A2996 RMK A01 T00730073  RH  100%=      5-min Rain = 0
KCL2 110442Z 15014KT 07/07 A2996 RMK A01 T00730073  RH  100%=      5-min Rain = 0
KCL2 110443Z 15014KT 07/07 A2996 RMK A01 T00730073  RH  100%=      5-min Rain = 0
KCL2 110444Z 15011KT 07/07 A2995 RMK A01 T00730072  RH  100%=      5-min Rain = 0
KCL2 110445Z 15013KT 07/07 A2995 RMK A01 T00730073  RH  100%=      5-min Rain = 0
KCL2 110446Z 15013KT 07/07 A2995 RMK A01 T00730073  RH  100%=      5-min Rain = 0
KCL2 110447Z 15012KT 07/07 A2995 RMK A01 T00740073  RH  100%=      5-min Rain = 0
KCL2 110448Z 14014KT 07/07 A2995 RMK A01 T00740073  RH  100%=      5-min Rain = 0
KCL2 110449Z 15013KT 07/07 A2995 RMK A01 T00730073  RH  100%=      5-min Rain = 0
KCL2 110450Z 15014KT 07/07 A2995 RMK A01 T00730073  RH  100%=      5-min Rain = 0
KCL2 110451Z 15012KT 07/07 A2995 RMK A01 T00740074  RH  100%=      5-min Rain = 0
KCL2 110452Z 15014KT 07/07 A2995 RMK A01 T00740073  RH  100%=      5-min Rain = 0
KCL2 110453Z 15014KT 07/07 A2996 RMK A01 T00740073  RH  100%=      5-min Rain = 0
KCL2 110454Z 15013KT 07/07 A2996 RMK A01 T00740073  RH  100%=      5-min Rain = 0
KCL2 110455Z 15013KT 07/07 A2996 RMK A01 T00740073  RH  100%=      5-min Rain = 0
KCL2 110456Z 15013KT 07/07 A2996 RMK A01 T00740073  RH  100%=      5-min Rain = 0
KCL2 110457Z 15013KT 07/07 A2996 RMK A01 T00740074  RH  100%=      5-min Rain = 0
KCL2 110458Z 15013KT 07/07 A2996 RMK A01 T00740074  RH  100%=      5-min Rain = 0
KCL2 110459Z 15012KT 07/07 A2996 RMK A01 T00740074  RH  100%=      5-min Rain = 0
KCL2 110500Z 15013KT 07/07 A2996 RMK A01 T00740074  RH  100%=      5-min Rain = 0
KCL2 110501Z 16014KT 07/07 A2996 RMK A01 T00740074  RH  100%=      5-min Rain = 0
KCL2 110502Z 16013KT 07/07 A2996 RMK A01 T00740074  RH  100%=      5-min Rain = 0
KCL2 110503Z 16014KT 08/07 A2997 RMK A01 T00750074  RH  100%=      5-min Rain = 0
KCL2 110504Z 16012G17KT 07/07 A2997 RMK A01 T00740074  RH  100%=      5-min Rain = 0
KCL2 110505Z 15011KT 07/07 A2996 RMK A01 T00740074  RH  100%=      5-min Rain = 0
KCL2 110506Z 15011KT 07/07 A2996 RMK A01 T00740074  RH  100%=      5-min Rain = 0
KCL2 110507Z 16011KT 07/07 A2997 RMK A01 T00740074  RH  100%=      5-min Rain = 0
KCL2 110508Z 15012KT 08/07 A2997 RMK A01 T00750074  RH  100%=      5-min Rain = 0
KCL2 110509Z 16014KT 08/08 A2997 RMK A01 T00750075  RH  100%=      5-min Rain = 0
KCL2 110510Z 16014KT 08/08 A2997 RMK A01 T00750075  RH  100%=      5-min Rain = 0
KCL2 110511Z 16014KT 08/08 A2997 RMK A01 T00750075  RH  100%=      5-min Rain = 0
KCL2 110512Z 16014KT 08/07 A2997 RMK A01 T00750074  RH  100%=      5-min Rain = 0
KCL2 110513Z 15014KT 08/08 A2997 RMK A01 T00750075  RH  100%=      5-min Rain = 0
KCL2 110514Z 16012KT 08/08 A2997 RMK A01 T00750075  RH  100%=      5-min Rain = 0
KCL2 110515Z 15014KT 08/08 A2997 RMK A01 T00750075  RH  100%=      5-min Rain = 0
KCL2 110516Z 16013KT 08/08 A2997 RMK A01 T00750075  RH  100%=      5-min Rain = 0
KCL2 110517Z 16013KT 08/07 A2997 RMK A01 T00750074  RH  100%=      5-min Rain = 0
KCL2 110518Z 16013KT 08/08 A2997 RMK A01 T00750075  RH  100%=      5-min Rain = 0
KCL2 110519Z 16014KT 08/08 A2997 RMK A01 T00750075  RH  100%=      5-min Rain = 0
KCL2 110520Z 16013KT 08/07 A2997 RMK A01 T00750074  RH  100%=      5-min Rain = 0
KCL2 110521Z 16015G21KT 08/08 A2998 RMK A01 T00750075  RH  100%=      5-min Rain = 0
KCL2 110522Z 17016KT 08/08 A2998 RMK A01 T00750075  RH  100%=      5-min Rain = 0
KCL2 110523Z 17016KT 08/08 A2998 RMK A01 T00750075  RH  100%=      5-min Rain = 0
KCL2 110524Z 16015G22KT 07/07 A2998 RMK A01 T00740074  RH  100%=      5-min Rain = 0
KCL2 110525Z 16014G20KT 07/07 A2998 RMK A01 T00740074  RH  100%=      5-min Rain = 0
KCL2 110526Z 16015KT 07/07 A2997 RMK A01 T00740074  RH  100%=      5-min Rain = 0
KCL2 110527Z 16016G21KT 07/07 A2998 RMK A01 T00740074  RH  100%=      5-min Rain = 0
KCL2 110528Z 16015KT 07/07 A2998 RMK A01 T00740074  RH  100%=      5-min Rain = 0
KCL2 110529Z 16014KT 07/07 A2998 RMK A01 T00740074  RH  100%=      5-min Rain = 0
KCL2 110530Z 16014KT 07/07 A2997 RMK A01 T00740074  RH  100%=      5-min Rain = 0
KCL2 110531Z 16016G21KT 07/07 A2998 RMK A01 T00740074  RH  100%=      5-min Rain = 0
KCL2 110532Z 16011KT 07/07 A2997 RMK A01 T00740074  RH  100%=      5-min Rain = 0
KCL2 110533Z 17016KT 07/07 A2998 RMK A01 T00740074  RH  100%=      5-min Rain = 0
KCL2 110534Z 16012KT 07/07 A2998 RMK A01 T00740074  RH  100%=      5-min Rain = 0
KCL2 110535Z 17015KT 07/07 A2998 RMK A01 T00740074  RH  100%=      5-min Rain = 0
KCL2 110536Z 17014KT 07/07 A2998 RMK A01 T00740074  RH  100%=      5-min Rain = 0
KCL2 110537Z 16014KT 07/07 A2998 RMK A01 T00740074  RH  100%=      5-min Rain = 0
KCL2 110538Z 17013KT 07/07 A2998 RMK A01 T00740074  RH  100%=      5-min Rain = 0
KCL2 110539Z 17015KT 07/07 A2998 RMK A01 T00740074  RH  100%=      5-min Rain = 0
KCL2 110540Z 17013G18KT 07/07 A2998 RMK A01 T00740074  RH  100%=      5-min Rain = 0.01
KCL2 110541Z 17017KT 07/07 A2998 RMK A01 T00740074  RH  100%=      5-min Rain = 0
KCL2 110542Z 17017KT 07/07 A2998 RMK A01 T00740074  RH  100%=      5-min Rain = 0
KCL2 110543Z 17015KT 07/07 A2998 RMK A01 T00740074  RH  100%=      5-min Rain = 0
KCL2 110544Z 17014KT 07/07 A2997 RMK A01 T00740074  RH  100%=      5-min Rain = 0
KCL2 110545Z 17012KT 07/07 A2997 RMK A01 T00740074  RH  100%=      5-min Rain = 0
KCL2 110546Z 17011KT 07/07 A2997 RMK A01 T00740074  RH  100%=      5-min Rain = 0
KCL2 110547Z 17013KT 07/07 A2997 RMK A01 T00740074  RH  100%=      5-min Rain = 0
KCL2 110548Z 17013KT 07/07 A2997 RMK A01 T00740074  RH  100%=      5-min Rain = 0
KCL2 110549Z 17011KT 07/07 A2997 RMK A01 T00740074  RH  100%=      5-min Rain = 0
KCL2 110550Z 17012KT 07/07 A2997 RMK A01 T00740074  RH  100%=      5-min Rain = 0
KCL2 110551Z 17013KT 07/07 A2997 RMK A01 T00740074  RH  100%=      5-min Rain = 0
KCL2 110552Z 18011KT 07/07 A2997 RMK A01 T00740074  RH  100%=      5-min Rain = 0
KCL2 110553Z 18010KT 07/07 A2997 RMK A01 T00740074  RH  100%=      5-min Rain = 0
KCL2 110554Z 18010KT 07/07 A2997 RMK A01 T00740074  RH  100%=      5-min Rain = 0
KCL2 110555Z 18010KT 07/07 A2997 RMK A01 T00740074  RH  100%=      5-min Rain = 0
KCL2 110556Z 18009KT 07/07 A2997 RMK A01 T00740074  RH  100%=      5-min Rain = 0
KCL2 110557Z 18008KT 07/07 A2996 RMK A01 T00740074  RH  100%=      5-min Rain = 0
KCL2 110558Z 18008KT 07/07 A2996 RMK A01 T00740074  RH  100%=      5-min Rain = 0
KCL2 110559Z 17011KT 07/07 A2996 RMK A01 T00740074  RH  100%=      5-min Rain = 0

Page generated in 0.0334 seconds.